PWSweather.com
Personal Weather Stations
Station Observations
WEERALK
AlkmaarNL 1827 PE

AlkmaarNL 1827 PE

Lat: 52.6712679, Lon: 4.7682444

Elevation: 7

Station Type: Davis Vantage Pro2

Latest ConditionsUpdated 9:15:06 AM GMT+01:01 Thursday, Jan 29, 2015
Currently Today's Max Today's Min Today's Average
Temperature 39.4°F4.1°C 40.6°F4.8°C 38.5°F3.6°C 39.9°F4.4°C
Dew Point 33.1°F0.6°C 34.3°F1.3°C 32.0°F0.0°C 33.1°F0.6°C
Winds 13.0 mph WSW20.9 kmh WSW 19.0 mph WSW30.6 kmh WSW - 15.1 mph 24.3 kmh
Wind Gusts 25.0 mph40.2 kmh 35.0 mph56.3 kmh - -
Humidity 78% 83% 72% 77%
Pressure 29.08 in984.8 mb 29.33 in993.2 mb 29.08 in984.8 mb -
Precipitation - 0.03 in0.8 mm - -
Hour Temp Dew Point Humidity Winds Wind Gusts Pressure Precip Precip Rate Daily Precip Total
09:15 AM 39.4°F4.1°C 33.1°F0.6°C 78% 13.0 mph WSW20.9 kmh WSW 25.0 mph40.2 kmh 29.08 in984.8 mb 0.00 in0.0 mm 0.00 in/hr0.0 mm/hr 0.03 in0.8 mm
09:14 AM 39.6°F4.2°C 33.3°F0.7°C 78% 13.0 mph WSW20.9 kmh WSW 24.0 mph38.6 kmh 29.08 in984.8 mb 0.00 in0.0 mm 0.00 in/hr0.0 mm/hr 0.03 in0.8 mm
09:13 AM 39.6°F4.2°C 32.9°F0.5°C 77% 14.0 mph WSW22.5 kmh WSW 24.0 mph38.6 kmh 29.08 in984.8 mb 0.00 in0.0 mm 0.00 in/hr0.0 mm/hr 0.03 in0.8 mm
09:12 AM 39.6°F4.2°C 32.9°F0.5°C 77% 13.0 mph WSW20.9 kmh WSW 24.0 mph38.6 kmh 29.08 in984.8 mb 0.00 in0.0 mm 0.00 in/hr0.0 mm/hr 0.03 in0.8 mm
09:11 AM 39.6°F4.2°C 32.9°F0.5°C 77% 13.0 mph WSW20.9 kmh WSW 22.0 mph35.4 kmh 29.08 in984.8 mb 0.00 in0.0 mm 0.00 in/hr0.0 mm/hr 0.03 in0.8 mm
09:10 AM 39.6°F4.2°C 32.9°F0.5°C 77% 13.0 mph WSW20.9 kmh WSW 22.0 mph35.4 kmh 29.08 in984.8 mb 0.00 in0.0 mm 0.00 in/hr0.0 mm/hr 0.03 in0.8 mm
09:09 AM 39.6°F4.2°C 32.9°F0.5°C 77% 14.0 mph WSW22.5 kmh WSW 23.0 mph37.0 kmh 29.08 in984.8 mb 0.00 in0.0 mm 0.00 in/hr0.0 mm/hr 0.03 in0.8 mm
09:08 AM 39.6°F4.2°C 32.9°F0.5°C 77% 14.0 mph WSW22.5 kmh WSW 26.0 mph41.8 kmh 29.08 in984.8 mb 0.00 in0.0 mm 0.00 in/hr0.0 mm/hr 0.03 in0.8 mm
09:07 AM 39.6°F4.2°C 32.9°F0.5°C 77% 14.0 mph WSW22.5 kmh WSW 26.0 mph41.8 kmh 29.08 in984.8 mb 0.00 in0.0 mm 0.00 in/hr0.0 mm/hr 0.03 in0.8 mm
09:06 AM 39.6°F4.2°C 32.9°F0.5°C 77% 14.0 mph WSW22.5 kmh WSW 26.0 mph41.8 kmh 29.08 in984.8 mb 0.00 in0.0 mm 0.00 in/hr0.0 mm/hr 0.03 in0.8 mm
09:05 AM 39.6°F4.2°C 32.9°F0.5°C 77% 14.0 mph WSW22.5 kmh WSW 26.0 mph41.8 kmh 29.08 in984.8 mb 0.00 in0.0 mm 0.00 in/hr0.0 mm/hr 0.03 in0.8 mm
09:04 AM 39.6°F4.2°C 32.9°F0.5°C 77% 14.0 mph WSW22.5 kmh WSW 26.0 mph41.8 kmh 29.08 in984.8 mb 0.00 in0.0 mm 0.00 in/hr0.0 mm/hr 0.03 in0.8 mm
09:03 AM 39.6°F4.2°C 32.9°F0.5°C 77% 14.0 mph WSW22.5 kmh WSW 26.0 mph41.8 kmh 29.08 in984.8 mb 0.00 in0.0 mm 0.00 in/hr0.0 mm/hr 0.03 in0.8 mm
09:02 AM 39.6°F4.2°C 32.9°F0.5°C 77% 14.0 mph WSW22.5 kmh WSW 26.0 mph41.8 kmh 29.08 in984.8 mb 0.00 in0.0 mm 0.00 in/hr0.0 mm/hr 0.03 in0.8 mm
09:01 AM 39.6°F4.2°C 32.9°F0.5°C 77% 14.0 mph WSW22.5 kmh WSW 26.0 mph41.8 kmh 29.08 in984.8 mb 0.00 in0.0 mm 0.00 in/hr0.0 mm/hr 0.03 in0.8 mm
09:00 AM 39.6°F4.2°C 32.9°F0.5°C 77% 14.0 mph WSW22.5 kmh WSW 26.0 mph41.8 kmh 29.08 in984.8 mb 0.00 in0.0 mm 0.00 in/hr0.0 mm/hr 0.03 in0.8 mm
08:59 AM 39.6°F4.2°C 32.9°F0.5°C 77% 13.0 mph WSW20.9 kmh WSW 26.0 mph41.8 kmh 29.09 in985.1 mb 0.00 in0.0 mm 0.00 in/hr0.0 mm/hr 0.03 in0.8 mm
08:58 AM 39.4°F4.1°C 32.7°F0.4°C 77% 13.0 mph WSW20.9 kmh WSW 24.0 mph38.6 kmh 29.08 in984.8 mb 0.00 in0.0 mm 0.00 in/hr0.0 mm/hr 0.03 in0.8 mm
08:57 AM 39.4°F4.1°C 32.7°F0.4°C 77% 13.0 mph WSW20.9 kmh WSW 24.0 mph38.6 kmh 29.09 in985.1 mb 0.00 in0.0 mm 0.00 in/hr0.0 mm/hr 0.03 in0.8 mm
08:56 AM 39.4°F4.1°C 32.7°F0.4°C 77% 14.0 mph WSW22.5 kmh WSW 24.0 mph38.6 kmh 29.09 in985.1 mb 0.00 in0.0 mm 0.00 in/hr0.0 mm/hr 0.03 in0.8 mm
08:55 AM 39.4°F4.1°C 32.7°F0.4°C 77% 14.0 mph WSW22.5 kmh WSW 24.0 mph38.6 kmh 29.09 in985.1 mb 0.00 in0.0 mm 0.00 in/hr0.0 mm/hr 0.03 in0.8 mm
08:54 AM 39.4°F4.1°C 32.7°F0.4°C 77% 14.0 mph WSW22.5 kmh WSW 24.0 mph38.6 kmh 29.09 in985.1 mb 0.00 in0.0 mm 0.00 in/hr0.0 mm/hr 0.03 in0.8 mm
08:53 AM 39.4°F4.1°C 32.7°F0.4°C 77% 14.0 mph WSW22.5 kmh WSW 24.0 mph38.6 kmh 29.09 in985.1 mb 0.00 in0.0 mm 0.00 in/hr0.0 mm/hr 0.03 in0.8 mm
08:52 AM 39.4°F4.1°C 32.7°F0.4°C 77% 13.0 mph WSW20.9 kmh WSW 24.0 mph38.6 kmh 29.09 in985.1 mb 0.00 in0.0 mm 0.00 in/hr0.0 mm/hr 0.03 in0.8 mm
08:51 AM 39.4°F4.1°C 32.7°F0.4°C 77% 13.0 mph WSW20.9 kmh WSW 24.0 mph38.6 kmh 29.09 in985.1 mb 0.00 in0.0 mm 0.00 in/hr0.0 mm/hr 0.03 in0.8 mm
08:50 AM 39.6°F4.2°C 32.9°F0.5°C 77% 13.0 mph WSW20.9 kmh WSW 24.0 mph38.6 kmh 29.09 in985.1 mb 0.00 in0.0 mm 0.00 in/hr0.0 mm/hr 0.03 in0.8 mm
08:49 AM 39.6°F4.2°C 32.9°F0.5°C 77% 13.0 mph WSW20.9 kmh WSW 24.0 mph38.6 kmh 29.09 in985.1 mb 0.00 in0.0 mm 0.00 in/hr0.0 mm/hr 0.03 in0.8 mm
08:48 AM 39.6°F4.2°C 32.9°F0.5°C 77% 13.0 mph WSW20.9 kmh WSW 24.0 mph38.6 kmh 29.09 in985.1 mb 0.00 in0.0 mm 0.00 in/hr0.0 mm/hr 0.03 in0.8 mm
08:47 AM 39.6°F4.2°C 32.9°F0.5°C 77% 13.0 mph WSW20.9 kmh WSW 24.0 mph38.6 kmh 29.09 in985.1 mb 0.00 in0.0 mm 0.00 in/hr0.0 mm/hr 0.03 in0.8 mm
08:46 AM 39.6°F4.2°C 32.9°F0.5°C 77% 13.0 mph WSW20.9 kmh WSW 24.0 mph38.6 kmh 29.09 in985.1 mb 0.00 in0.0 mm 0.00 in/hr0.0 mm/hr 0.03 in0.8 mm
08:45 AM 39.6°F4.2°C 32.9°F0.5°C 77% 13.0 mph WSW20.9 kmh WSW 24.0 mph38.6 kmh 29.09 in985.1 mb 0.01 in0.3 mm 0.00 in/hr0.0 mm/hr 0.03 in0.8 mm
08:44 AM 39.6°F4.2°C 32.9°F0.5°C 77% 13.0 mph WSW20.9 kmh WSW 24.0 mph38.6 kmh 29.09 in985.1 mb 0.01 in0.3 mm 0.00 in/hr0.0 mm/hr 0.03 in0.8 mm
08:43 AM 39.6°F4.2°C 32.9°F0.5°C 77% 14.0 mph WSW22.5 kmh WSW 24.0 mph38.6 kmh 29.09 in985.1 mb 0.01 in0.3 mm 0.00 in/hr0.0 mm/hr 0.03 in0.8 mm
08:42 AM 39.6°F4.2°C 32.9°F0.5°C 77% 14.0 mph WSW22.5 kmh WSW 24.0 mph38.6 kmh 29.09 in985.1 mb 0.01 in0.3 mm 0.00 in/hr0.0 mm/hr 0.03 in0.8 mm
08:41 AM 39.6°F4.2°C 32.9°F0.5°C 77% 14.0 mph WSW22.5 kmh WSW 24.0 mph38.6 kmh 29.09 in985.1 mb 0.01 in0.3 mm 0.00 in/hr0.0 mm/hr 0.03 in0.8 mm
08:40 AM 39.6°F4.2°C 32.9°F0.5°C 77% 14.0 mph WSW22.5 kmh WSW 24.0 mph38.6 kmh 29.09 in985.1 mb 0.01 in0.3 mm 0.00 in/hr0.0 mm/hr 0.03 in0.8 mm
08:39 AM 39.6°F4.2°C 32.9°F0.5°C 77% 14.0 mph WSW22.5 kmh WSW 24.0 mph38.6 kmh 29.09 in985.1 mb 0.01 in0.3 mm 0.00 in/hr0.0 mm/hr 0.03 in0.8 mm
08:38 AM 39.6°F4.2°C 32.9°F0.5°C 77% 14.0 mph WSW22.5 kmh WSW 24.0 mph38.6 kmh 29.09 in985.1 mb 0.01 in0.3 mm 0.00 in/hr0.0 mm/hr 0.03 in0.8 mm
08:37 AM 39.6°F4.2°C 32.9°F0.5°C 77% 13.0 mph WSW20.9 kmh WSW 23.0 mph37.0 kmh 29.09 in985.1 mb 0.01 in0.3 mm 0.00 in/hr0.0 mm/hr 0.03 in0.8 mm
08:36 AM 39.6°F4.2°C 32.9°F0.5°C 77% 14.0 mph WSW22.5 kmh WSW 24.0 mph38.6 kmh 29.09 in985.1 mb 0.01 in0.3 mm 0.00 in/hr0.0 mm/hr 0.03 in0.8 mm
08:35 AM 39.4°F4.1°C 32.7°F0.4°C 77% 13.0 mph WSW20.9 kmh WSW 25.0 mph40.2 kmh 29.09 in985.1 mb 0.01 in0.3 mm 0.00 in/hr0.0 mm/hr 0.03 in0.8 mm
08:34 AM 39.6°F4.2°C 33.3°F0.7°C 78% 13.0 mph WSW20.9 kmh WSW 25.0 mph40.2 kmh 29.10 in985.4 mb 0.01 in0.3 mm 0.00 in/hr0.0 mm/hr 0.03 in0.8 mm
08:33 AM 39.4°F4.1°C 33.1°F0.6°C 78% 13.0 mph WSW20.9 kmh WSW 25.0 mph40.2 kmh 29.10 in985.4 mb 0.01 in0.3 mm 0.00 in/hr0.0 mm/hr 0.03 in0.8 mm
08:32 AM 39.4°F4.1°C 33.1°F0.6°C 78% 13.0 mph WSW20.9 kmh WSW 25.0 mph40.2 kmh 29.10 in985.4 mb 0.01 in0.3 mm 0.00 in/hr0.0 mm/hr 0.03 in0.8 mm
08:31 AM 39.4°F4.1°C 33.1°F0.6°C 78% 13.0 mph WSW20.9 kmh WSW 25.0 mph40.2 kmh 29.10 in985.4 mb 0.01 in0.3 mm 0.00 in/hr0.0 mm/hr 0.03 in0.8 mm
08:30 AM 39.6°F4.2°C 33.3°F0.7°C 78% 13.0 mph WSW20.9 kmh WSW 25.0 mph40.2 kmh 29.10 in985.4 mb 0.01 in0.3 mm 0.00 in/hr0.0 mm/hr 0.03 in0.8 mm
08:29 AM 39.6°F4.2°C 33.3°F0.7°C 78% 13.0 mph WSW20.9 kmh WSW 25.0 mph40.2 kmh 29.10 in985.4 mb 0.01 in0.3 mm 0.00 in/hr0.0 mm/hr 0.03 in0.8 mm
08:28 AM 39.6°F4.2°C 33.3°F0.7°C 78% 14.0 mph WSW22.5 kmh WSW 27.0 mph43.5 kmh 29.09 in985.1 mb 0.01 in0.3 mm 0.00 in/hr0.0 mm/hr 0.03 in0.8 mm
08:27 AM 39.6°F4.2°C 33.3°F0.7°C 78% 14.0 mph WSW22.5 kmh WSW 27.0 mph43.5 kmh 29.10 in985.4 mb 0.01 in0.3 mm 0.00 in/hr0.0 mm/hr 0.03 in0.8 mm
08:26 AM 39.6°F4.2°C 33.3°F0.7°C 78% 14.0 mph WSW22.5 kmh WSW 27.0 mph43.5 kmh 29.10 in985.4 mb 0.01 in0.3 mm 0.00 in/hr0.0 mm/hr 0.03 in0.8 mm
08:25 AM 39.6°F4.2°C 33.3°F0.7°C 78% 15.0 mph WSW24.1 kmh WSW 27.0 mph43.5 kmh 29.10 in985.4 mb 0.01 in0.3 mm 0.00 in/hr0.0 mm/hr 0.03 in0.8 mm
08:24 AM 39.6°F4.2°C 33.3°F0.7°C 78% 16.0 mph WSW25.7 kmh WSW 27.0 mph43.5 kmh 29.10 in985.4 mb 0.01 in0.3 mm 0.00 in/hr0.0 mm/hr 0.03 in0.8 mm
08:23 AM 39.6°F4.2°C 33.3°F0.7°C 78% 16.0 mph WSW25.7 kmh WSW 27.0 mph43.5 kmh 29.10 in985.4 mb 0.01 in0.3 mm 0.00 in/hr0.0 mm/hr 0.03 in0.8 mm
08:22 AM 39.6°F4.2°C 33.3°F0.7°C 78% 16.0 mph WSW25.7 kmh WSW 27.0 mph43.5 kmh 29.10 in985.4 mb 0.01 in0.3 mm 0.00 in/hr0.0 mm/hr 0.03 in0.8 mm
08:21 AM 39.4°F4.1°C 33.1°F0.6°C 78% 16.0 mph WSW25.7 kmh WSW 27.0 mph43.5 kmh 29.10 in985.4 mb 0.01 in0.3 mm 0.00 in/hr0.0 mm/hr 0.03 in0.8 mm
08:20 AM 39.4°F4.1°C 33.1°F0.6°C 78% 16.0 mph WSW25.7 kmh WSW 27.0 mph43.5 kmh 29.11 in985.8 mb 0.01 in0.3 mm 0.00 in/hr0.0 mm/hr 0.03 in0.8 mm
08:19 AM 39.4°F4.1°C 33.1°F0.6°C 78% 16.0 mph WSW25.7 kmh WSW 27.0 mph43.5 kmh 29.11 in985.8 mb 0.01 in0.3 mm 0.00 in/hr0.0 mm/hr 0.03 in0.8 mm
08:18 AM 39.4°F4.1°C 33.1°F0.6°C 78% 15.0 mph WSW24.1 kmh WSW 27.0 mph43.5 kmh 29.11 in985.8 mb 0.01 in0.3 mm 0.00 in/hr0.0 mm/hr 0.03 in0.8 mm
08:17 AM 39.4°F4.1°C 33.4°F0.8°C 79% 15.0 mph WSW24.1 kmh WSW 27.0 mph43.5 kmh 29.11 in985.8 mb 0.01 in0.3 mm 0.00 in/hr0.0 mm/hr 0.03 in0.8 mm
08:16 AM 39.4°F4.1°C 33.4°F0.8°C 79% 15.0 mph WSW24.1 kmh WSW 27.0 mph43.5 kmh 29.11 in985.8 mb 0.01 in0.3 mm 0.00 in/hr0.0 mm/hr 0.03 in0.8 mm
08:15 AM 39.4°F4.1°C 33.4°F0.8°C 79% 15.0 mph WSW24.1 kmh WSW 27.0 mph43.5 kmh 29.11 in985.8 mb 0.01 in0.3 mm 0.00 in/hr0.0 mm/hr 0.03 in0.8 mm
08:14 AM 39.4°F4.1°C 33.4°F0.8°C 79% 15.0 mph WSW24.1 kmh WSW 27.0 mph43.5 kmh 29.11 in985.8 mb 0.01 in0.3 mm 0.00 in/hr0.0 mm/hr 0.03 in0.8 mm
08:13 AM 39.4°F4.1°C 33.4°F0.8°C 79% 15.0 mph WSW24.1 kmh WSW 26.0 mph41.8 kmh 29.11 in985.8 mb 0.01 in0.3 mm 0.00 in/hr0.0 mm/hr 0.03 in0.8 mm
08:12 AM 39.6°F4.2°C 33.4°F0.8°C 79% 15.0 mph WSW24.1 kmh WSW 26.0 mph41.8 kmh 29.11 in985.8 mb 0.01 in0.3 mm 0.00 in/hr0.0 mm/hr 0.03 in0.8 mm
08:11 AM 39.4°F4.1°C 33.4°F0.8°C 79% 14.0 mph WSW22.5 kmh WSW 26.0 mph41.8 kmh 29.11 in985.8 mb 0.01 in0.3 mm 0.00 in/hr0.0 mm/hr 0.03 in0.8 mm
08:10 AM 39.4°F4.1°C 33.4°F0.8°C 79% 14.0 mph WSW22.5 kmh WSW 26.0 mph41.8 kmh 29.11 in985.8 mb 0.01 in0.3 mm 0.00 in/hr0.0 mm/hr 0.03 in0.8 mm
08:09 AM 39.4°F4.1°C 33.6°F0.9°C 80% 14.0 mph WSW22.5 kmh WSW 26.0 mph41.8 kmh 29.11 in985.8 mb 0.01 in0.3 mm 0.00 in/hr0.0 mm/hr 0.03 in0.8 mm
08:08 AM 39.4°F4.1°C 33.6°F0.9°C 80% 14.0 mph WSW22.5 kmh WSW 26.0 mph41.8 kmh 29.11 in985.8 mb 0.01 in0.3 mm 0.00 in/hr0.0 mm/hr 0.03 in0.8 mm
08:07 AM 39.4°F4.1°C 33.6°F0.9°C 80% 14.0 mph WSW22.5 kmh WSW 26.0 mph41.8 kmh 29.11 in985.8 mb 0.01 in0.3 mm 0.00 in/hr0.0 mm/hr 0.03 in0.8 mm
08:06 AM 39.4°F4.1°C 34.0°F1.1°C 81% 14.0 mph WSW22.5 kmh WSW 26.0 mph41.8 kmh 29.11 in985.8 mb 0.01 in0.3 mm 0.00 in/hr0.0 mm/hr 0.03 in0.8 mm
08:05 AM 39.4°F4.1°C 34.0°F1.1°C 81% 14.0 mph WSW22.5 kmh WSW 26.0 mph41.8 kmh 29.11 in985.8 mb 0.01 in0.3 mm 0.00 in/hr0.0 mm/hr 0.03 in0.8 mm
08:04 AM 39.4°F4.1°C 34.0°F1.1°C 81% 13.0 mph WSW20.9 kmh WSW 26.0 mph41.8 kmh 29.11 in985.8 mb 0.01 in0.3 mm 0.00 in/hr0.0 mm/hr 0.03 in0.8 mm
08:03 AM 39.4°F4.1°C 34.3°F1.3°C 82% 13.0 mph WSW20.9 kmh WSW 26.0 mph41.8 kmh 29.11 in985.8 mb 0.01 in0.3 mm 0.00 in/hr0.0 mm/hr 0.03 in0.8 mm
08:02 AM 39.2°F4.0°C 34.2°F1.2°C 82% 13.0 mph WSW20.9 kmh WSW 26.0 mph41.8 kmh 29.11 in985.8 mb 0.01 in0.3 mm 0.00 in/hr0.0 mm/hr 0.03 in0.8 mm
08:01 AM 39.2°F4.0°C 34.2°F1.2°C 82% 14.0 mph WSW22.5 kmh WSW 26.0 mph41.8 kmh 29.11 in985.8 mb 0.01 in0.3 mm 0.00 in/hr0.0 mm/hr 0.03 in0.8 mm
08:00 AM 39.2°F4.0°C 34.2°F1.2°C 82% 14.0 mph WSW22.5 kmh WSW 26.0 mph41.8 kmh 29.11 in985.8 mb 0.01 in0.3 mm 0.00 in/hr0.0 mm/hr 0.03 in0.8 mm
07:59 AM 39.0°F3.9°C 34.3°F1.3°C 83% 14.0 mph WSW22.5 kmh WSW 28.0 mph45.1 kmh 29.11 in985.8 mb 0.01 in0.3 mm 0.00 in/hr0.0 mm/hr 0.03 in0.8 mm
07:58 AM 39.0°F3.9°C 34.3°F1.3°C 83% 14.0 mph WSW22.5 kmh WSW 28.0 mph45.1 kmh 29.11 in985.8 mb 0.01 in0.3 mm 0.00 in/hr0.0 mm/hr 0.03 in0.8 mm
07:57 AM 39.0°F3.9°C 34.3°F1.3°C 83% 15.0 mph WSW24.1 kmh WSW 28.0 mph45.1 kmh 29.11 in985.8 mb 0.01 in0.3 mm 0.00 in/hr0.0 mm/hr 0.03 in0.8 mm
07:56 AM 39.0°F3.9°C 34.3°F1.3°C 83% 15.0 mph WSW24.1 kmh WSW 28.0 mph45.1 kmh 29.11 in985.8 mb 0.01 in0.3 mm 0.00 in/hr0.0 mm/hr 0.03 in0.8 mm
07:55 AM 39.0°F3.9°C 34.3°F1.3°C 83% 15.0 mph WSW24.1 kmh WSW 28.0 mph45.1 kmh 29.11 in985.8 mb 0.01 in0.3 mm 0.00 in/hr0.0 mm/hr 0.03 in0.8 mm
07:54 AM 39.0°F3.9°C 34.3°F1.3°C 83% 16.0 mph WSW25.7 kmh WSW 29.0 mph46.7 kmh 29.11 in985.8 mb 0.01 in0.3 mm 0.00 in/hr0.0 mm/hr 0.03 in0.8 mm
07:53 AM 39.0°F3.9°C 34.3°F1.3°C 83% 16.0 mph WSW25.7 kmh WSW 29.0 mph46.7 kmh 29.11 in985.8 mb 0.01 in0.3 mm 0.00 in/hr0.0 mm/hr 0.03 in0.8 mm
07:52 AM 38.8°F3.8°C 34.2°F1.2°C 83% 16.0 mph WSW25.7 kmh WSW 29.0 mph46.7 kmh 29.11 in985.8 mb 0.01 in0.3 mm 0.00 in/hr0.0 mm/hr 0.03 in0.8 mm
07:51 AM 38.8°F3.8°C 34.2°F1.2°C 83% 16.0 mph WSW25.7 kmh WSW 29.0 mph46.7 kmh 29.11 in985.8 mb 0.01 in0.3 mm 0.00 in/hr0.0 mm/hr 0.03 in0.8 mm
07:50 AM 38.8°F3.8°C 34.2°F1.2°C 83% 15.0 mph WSW24.1 kmh WSW 29.0 mph46.7 kmh 29.11 in985.8 mb 0.02 in0.5 mm 0.00 in/hr0.0 mm/hr 0.03 in0.8 mm
07:49 AM 38.8°F3.8°C 33.8°F1.0°C 82% 15.0 mph WSW24.1 kmh WSW 29.0 mph46.7 kmh 29.11 in985.8 mb 0.02 in0.5 mm 0.00 in/hr0.0 mm/hr 0.03 in0.8 mm
07:48 AM 38.8°F3.8°C 33.8°F1.0°C 82% 14.0 mph WSW22.5 kmh WSW 29.0 mph46.7 kmh 29.11 in985.8 mb 0.02 in0.5 mm 0.00 in/hr0.0 mm/hr 0.03 in0.8 mm
07:47 AM 38.8°F3.8°C 33.8°F1.0°C 82% 14.0 mph WSW22.5 kmh WSW 29.0 mph46.7 kmh 29.11 in985.8 mb 0.02 in0.5 mm 0.60 in/hr15.2 mm/hr 0.03 in0.8 mm
07:46 AM 38.8°F3.8°C 33.4°F0.8°C 81% 13.0 mph WSW20.9 kmh WSW 29.0 mph46.7 kmh 29.11 in985.8 mb 0.01 in0.3 mm 0.00 in/hr0.0 mm/hr 0.02 in0.5 mm
07:45 AM 38.8°F3.8°C 33.4°F0.8°C 81% 14.0 mph WSW22.5 kmh WSW 29.0 mph46.7 kmh 29.11 in985.8 mb 0.01 in0.3 mm 0.00 in/hr0.0 mm/hr 0.02 in0.5 mm
07:44 AM 38.8°F3.8°C 33.1°F0.6°C 80% 13.0 mph WSW20.9 kmh WSW 24.0 mph38.6 kmh 29.11 in985.8 mb 0.01 in0.3 mm 0.00 in/hr0.0 mm/hr 0.02 in0.5 mm
07:43 AM 38.8°F3.8°C 33.1°F0.6°C 80% 13.0 mph WSW20.9 kmh WSW 22.0 mph35.4 kmh 29.11 in985.8 mb 0.01 in0.3 mm 0.00 in/hr0.0 mm/hr 0.02 in0.5 mm
07:42 AM 38.8°F3.8°C 33.3°F0.7°C 80% 13.0 mph WSW20.9 kmh WSW 22.0 mph35.4 kmh 29.11 in985.8 mb 0.01 in0.3 mm 0.00 in/hr0.0 mm/hr 0.02 in0.5 mm
07:41 AM 38.8°F3.8°C 32.9°F0.5°C 79% 13.0 mph WSW20.9 kmh WSW 22.0 mph35.4 kmh 29.11 in985.8 mb 0.01 in0.3 mm 0.00 in/hr0.0 mm/hr 0.02 in0.5 mm
07:40 AM 39.0°F3.9°C 33.1°F0.6°C 79% 14.0 mph WSW22.5 kmh WSW 22.0 mph35.4 kmh 29.11 in985.8 mb 0.01 in0.3 mm 0.00 in/hr0.0 mm/hr 0.02 in0.5 mm
07:39 AM 39.0°F3.9°C 33.1°F0.6°C 79% 14.0 mph WSW22.5 kmh WSW 22.0 mph35.4 kmh 29.11 in985.8 mb 0.01 in0.3 mm 0.00 in/hr0.0 mm/hr 0.02 in0.5 mm
07:38 AM 39.0°F3.9°C 32.9°F0.5°C 78% 14.0 mph WSW22.5 kmh WSW 22.0 mph35.4 kmh 29.11 in985.8 mb 0.01 in0.3 mm 0.00 in/hr0.0 mm/hr 0.02 in0.5 mm
07:37 AM 39.2°F4.0°C 32.9°F0.5°C 78% 15.0 mph WSW24.1 kmh WSW 22.0 mph35.4 kmh 29.11 in985.8 mb 0.01 in0.3 mm 0.00 in/hr0.0 mm/hr 0.02 in0.5 mm
07:36 AM 39.4°F4.1°C 33.1°F0.6°C 78% 15.0 mph WSW24.1 kmh WSW 22.0 mph35.4 kmh 29.11 in985.8 mb 0.01 in0.3 mm 0.00 in/hr0.0 mm/hr 0.02 in0.5 mm
07:35 AM 39.4°F4.1°C 32.7°F0.4°C 77% 15.0 mph WSW24.1 kmh WSW 31.0 mph49.9 kmh 29.11 in985.8 mb 0.02 in0.5 mm 0.00 in/hr0.0 mm/hr 0.02 in0.5 mm
07:34 AM 39.4°F4.1°C 32.7°F0.4°C 77% 15.0 mph WSW24.1 kmh WSW 31.0 mph49.9 kmh 29.11 in985.8 mb 0.02 in0.5 mm 0.00 in/hr0.0 mm/hr 0.02 in0.5 mm
07:33 AM 39.6°F4.2°C 32.9°F0.5°C 77% 15.0 mph WSW24.1 kmh WSW 31.0 mph49.9 kmh 29.12 in986.1 mb 0.02 in0.5 mm 0.00 in/hr0.0 mm/hr 0.02 in0.5 mm
07:32 AM 39.4°F4.1°C 32.7°F0.4°C 77% 15.0 mph WSW24.1 kmh WSW 31.0 mph49.9 kmh 29.12 in986.1 mb 0.02 in0.5 mm 0.00 in/hr0.0 mm/hr 0.02 in0.5 mm
07:31 AM 39.6°F4.2°C 32.9°F0.5°C 77% 15.0 mph WSW24.1 kmh WSW 31.0 mph49.9 kmh 29.12 in986.1 mb 0.02 in0.5 mm 0.00 in/hr0.0 mm/hr 0.02 in0.5 mm
07:30 AM 39.4°F4.1°C 32.7°F0.4°C 77% 15.0 mph WSW24.1 kmh WSW 31.0 mph49.9 kmh 29.11 in985.8 mb 0.02 in0.5 mm 0.00 in/hr0.0 mm/hr 0.02 in0.5 mm
07:29 AM 39.4°F4.1°C 32.7°F0.4°C 77% 15.0 mph WSW24.1 kmh WSW 31.0 mph49.9 kmh 29.11 in985.8 mb 0.02 in0.5 mm 0.00 in/hr0.0 mm/hr 0.02 in0.5 mm
07:28 AM 39.6°F4.2°C 32.9°F0.5°C 77% 15.0 mph WSW24.1 kmh WSW 31.0 mph49.9 kmh 29.12 in986.1 mb 0.02 in0.5 mm 0.00 in/hr0.0 mm/hr 0.02 in0.5 mm
07:27 AM 39.6°F4.2°C 32.9°F0.5°C 77% 15.0 mph WSW24.1 kmh WSW 31.0 mph49.9 kmh 29.12 in986.1 mb 0.02 in0.5 mm 0.00 in/hr0.0 mm/hr 0.02 in0.5 mm
07:26 AM 39.6°F4.2°C 32.9°F0.5°C 77% 15.0 mph WSW24.1 kmh WSW 31.0 mph49.9 kmh 29.12 in986.1 mb 0.02 in0.5 mm 0.00 in/hr0.0 mm/hr 0.02 in0.5 mm
07:25 AM 39.6°F4.2°C 32.9°F0.5°C 77% 15.0 mph WSW24.1 kmh WSW 27.0 mph43.5 kmh 29.12 in986.1 mb 0.02 in0.5 mm 0.00 in/hr0.0 mm/hr 0.02 in0.5 mm
07:24 AM 39.6°F4.2°C 32.9°F0.5°C 77% 16.0 mph WSW25.7 kmh WSW 29.0 mph46.7 kmh 29.12 in986.1 mb 0.02 in0.5 mm 0.00 in/hr0.0 mm/hr 0.02 in0.5 mm
07:23 AM 39.6°F4.2°C 32.5°F0.3°C 76% 16.0 mph WSW25.7 kmh WSW 30.0 mph48.3 kmh 29.12 in986.1 mb 0.02 in0.5 mm 0.00 in/hr0.0 mm/hr 0.02 in0.5 mm
07:22 AM 39.6°F4.2°C 32.5°F0.3°C 76% 17.0 mph WSW27.4 kmh WSW 30.0 mph48.3 kmh 29.12 in986.1 mb 0.02 in0.5 mm 0.00 in/hr0.0 mm/hr 0.02 in0.5 mm
07:21 AM 39.6°F4.2°C 32.5°F0.3°C 76% 17.0 mph WSW27.4 kmh WSW 30.0 mph48.3 kmh 29.12 in986.1 mb 0.02 in0.5 mm 0.00 in/hr0.0 mm/hr 0.02 in0.5 mm
07:20 AM 39.6°F4.2°C 32.5°F0.3°C 76% 17.0 mph WSW27.4 kmh WSW 30.0 mph48.3 kmh 29.12 in986.1 mb 0.02 in0.5 mm 0.00 in/hr0.0 mm/hr 0.02 in0.5 mm
07:19 AM 39.4°F4.1°C 32.5°F0.3°C 76% 17.0 mph WSW27.4 kmh WSW 30.0 mph48.3 kmh 29.12 in986.1 mb 0.02 in0.5 mm 0.00 in/hr0.0 mm/hr 0.02 in0.5 mm
07:18 AM 39.4°F4.1°C 32.5°F0.3°C 76% 16.0 mph WSW25.7 kmh WSW 30.0 mph48.3 kmh 29.12 in986.1 mb 0.02 in0.5 mm 0.00 in/hr0.0 mm/hr 0.02 in0.5 mm
07:17 AM 39.4°F4.1°C 32.7°F0.4°C 77% 17.0 mph WSW27.4 kmh WSW 30.0 mph48.3 kmh 29.12 in986.1 mb 0.02 in0.5 mm 0.00 in/hr0.0 mm/hr 0.02 in0.5 mm
07:16 AM 39.4°F4.1°C 32.7°F0.4°C 77% 17.0 mph WSW27.4 kmh WSW 30.0 mph48.3 kmh 29.12 in986.1 mb 0.02 in0.5 mm 0.00 in/hr0.0 mm/hr 0.02 in0.5 mm
07:15 AM 39.4°F4.1°C 32.7°F0.4°C 77% 17.0 mph WSW27.4 kmh WSW 30.0 mph48.3 kmh 29.12 in986.1 mb 0.02 in0.5 mm 0.00 in/hr0.0 mm/hr 0.02 in0.5 mm
07:14 AM 39.4°F4.1°C 32.7°F0.4°C 77% 16.0 mph WSW25.7 kmh WSW 30.0 mph48.3 kmh 29.12 in986.1 mb 0.02 in0.5 mm 0.00 in/hr0.0 mm/hr 0.02 in0.5 mm
07:13 AM 39.4°F4.1°C 33.1°F0.6°C 78% 16.0 mph WSW25.7 kmh WSW 30.0 mph48.3 kmh 29.12 in986.1 mb 0.02 in0.5 mm 0.00 in/hr0.0 mm/hr 0.02 in0.5 mm
07:12 AM 39.2°F4.0°C 32.9°F0.5°C 78% 16.0 mph WSW25.7 kmh WSW 30.0 mph48.3 kmh 29.12 in986.1 mb 0.02 in0.5 mm 0.00 in/hr0.0 mm/hr 0.02 in0.5 mm
07:11 AM 39.2°F4.0°C 32.9°F0.5°C 78% 16.0 mph WSW25.7 kmh WSW 30.0 mph48.3 kmh 29.12 in986.1 mb 0.02 in0.5 mm 0.00 in/hr0.0 mm/hr 0.02 in0.5 mm
07:10 AM 39.2°F4.0°C 32.9°F0.5°C 78% 16.0 mph WSW25.7 kmh WSW 30.0 mph48.3 kmh 29.12 in986.1 mb 0.02 in0.5 mm 0.00 in/hr0.0 mm/hr 0.02 in0.5 mm
07:09 AM 39.0°F3.9°C 32.9°F0.5°C 78% 16.0 mph WSW25.7 kmh WSW 30.0 mph48.3 kmh 29.12 in986.1 mb 0.02 in0.5 mm 0.00 in/hr0.0 mm/hr 0.02 in0.5 mm
07:08 AM 39.0°F3.9°C 32.9°F0.5°C 78% 16.0 mph WSW25.7 kmh WSW 30.0 mph48.3 kmh 29.13 in986.5 mb 0.02 in0.5 mm 0.00 in/hr0.0 mm/hr 0.02 in0.5 mm
07:07 AM 39.0°F3.9°C 32.9°F0.5°C 78% 16.0 mph WSW25.7 kmh WSW 30.0 mph48.3 kmh 29.13 in986.5 mb 0.02 in0.5 mm 0.00 in/hr0.0 mm/hr 0.02 in0.5 mm
07:06 AM 39.0°F3.9°C 32.9°F0.5°C 78% 16.0 mph WSW25.7 kmh WSW 30.0 mph48.3 kmh 29.12 in986.1 mb 0.02 in0.5 mm 0.00 in/hr0.0 mm/hr 0.02 in0.5 mm
07:05 AM 39.0°F3.9°C 33.1°F0.6°C 79% 16.0 mph WSW25.7 kmh WSW 30.0 mph48.3 kmh 29.12 in986.1 mb 0.02 in0.5 mm 0.00 in/hr0.0 mm/hr 0.02 in0.5 mm
07:04 AM 39.0°F3.9°C 33.1°F0.6°C 79% 16.0 mph WSW25.7 kmh WSW 28.0 mph45.1 kmh 29.12 in986.1 mb 0.02 in0.5 mm 0.00 in/hr0.0 mm/hr 0.02 in0.5 mm
07:03 AM 39.0°F3.9°C 33.1°F0.6°C 79% 17.0 mph WSW27.4 kmh WSW 28.0 mph45.1 kmh 29.12 in986.1 mb 0.02 in0.5 mm 0.00 in/hr0.0 mm/hr 0.02 in0.5 mm
07:02 AM 39.0°F3.9°C 33.4°F0.8°C 80% 17.0 mph WSW27.4 kmh WSW 28.0 mph45.1 kmh 29.13 in986.5 mb 0.02 in0.5 mm 0.00 in/hr0.0 mm/hr 0.02 in0.5 mm
07:01 AM 39.0°F3.9°C 33.4°F0.8°C 80% 17.0 mph WSW27.4 kmh WSW 29.0 mph46.7 kmh 29.13 in986.5 mb 0.02 in0.5 mm 0.00 in/hr0.0 mm/hr 0.02 in0.5 mm
07:00 AM 38.8°F3.8°C 33.3°F0.7°C 80% 17.0 mph WSW27.4 kmh WSW 29.0 mph46.7 kmh 29.13 in986.5 mb 0.02 in0.5 mm 0.00 in/hr0.0 mm/hr 0.02 in0.5 mm
06:59 AM 38.8°F3.8°C 33.3°F0.7°C 80% 17.0 mph WSW27.4 kmh WSW 29.0 mph46.7 kmh 29.12 in986.1 mb 0.02 in0.5 mm 0.00 in/hr0.0 mm/hr 0.02 in0.5 mm
06:58 AM 38.8°F3.8°C 33.4°F0.8°C 81% 17.0 mph WSW27.4 kmh WSW 29.0 mph46.7 kmh 29.12 in986.1 mb 0.02 in0.5 mm 0.00 in/hr0.0 mm/hr 0.02 in0.5 mm
06:57 AM 38.8°F3.8°C 33.4°F0.8°C 81% 16.0 mph WSW25.7 kmh WSW 29.0 mph46.7 kmh 29.13 in986.5 mb 0.02 in0.5 mm 0.00 in/hr0.0 mm/hr 0.02 in0.5 mm
06:56 AM 38.8°F3.8°C 33.4°F0.8°C 81% 15.0 mph WSW24.1 kmh WSW 29.0 mph46.7 kmh 29.12 in986.1 mb 0.02 in0.5 mm 0.00 in/hr0.0 mm/hr 0.02 in0.5 mm
06:55 AM 38.8°F3.8°C 33.4°F0.8°C 81% 15.0 mph WSW24.1 kmh WSW 29.0 mph46.7 kmh 29.12 in986.1 mb 0.02 in0.5 mm 0.00 in/hr0.0 mm/hr 0.02 in0.5 mm
06:54 AM 38.8°F3.8°C 33.8°F1.0°C 82% 15.0 mph WSW24.1 kmh WSW 29.0 mph46.7 kmh 29.13 in986.5 mb 0.02 in0.5 mm 0.00 in/hr0.0 mm/hr 0.02 in0.5 mm
06:53 AM 38.8°F3.8°C 33.8°F1.0°C 82% 15.0 mph WSW24.1 kmh WSW 29.0 mph46.7 kmh 29.12 in986.1 mb 0.02 in0.5 mm 0.00 in/hr0.0 mm/hr 0.02 in0.5 mm
06:52 AM 38.8°F3.8°C 33.8°F1.0°C 82% 15.0 mph WSW24.1 kmh WSW 29.0 mph46.7 kmh 29.12 in986.1 mb 0.02 in0.5 mm 0.60 in/hr15.2 mm/hr 0.02 in0.5 mm
06:51 AM 38.8°F3.8°C 33.8°F1.0°C 82% 15.0 mph WSW24.1 kmh WSW 30.0 mph48.3 kmh 29.12 in986.1 mb 0.01 in0.3 mm 0.00 in/hr0.0 mm/hr 0.02 in0.5 mm
06:50 AM 38.8°F3.8°C 33.8°F1.0°C 82% 14.0 mph WSW22.5 kmh WSW 30.0 mph48.3 kmh 29.13 in986.5 mb 0.01 in0.3 mm 0.00 in/hr0.0 mm/hr 0.02 in0.5 mm
06:49 AM 38.8°F3.8°C 33.4°F0.8°C 81% 14.0 mph WSW22.5 kmh WSW 30.0 mph48.3 kmh 29.12 in986.1 mb 0.01 in0.3 mm 0.00 in/hr0.0 mm/hr 0.02 in0.5 mm
06:48 AM 38.8°F3.8°C 33.4°F0.8°C 81% 14.0 mph WSW22.5 kmh WSW 30.0 mph48.3 kmh 29.13 in986.5 mb 0.01 in0.3 mm 0.00 in/hr0.0 mm/hr 0.02 in0.5 mm
06:47 AM 38.8°F3.8°C 33.6°F0.9°C 81% 15.0 mph WSW24.1 kmh WSW 30.0 mph48.3 kmh 29.13 in986.5 mb 0.01 in0.3 mm 0.00 in/hr0.0 mm/hr 0.02 in0.5 mm
06:46 AM 38.8°F3.8°C 33.6°F0.9°C 81% 15.0 mph WSW24.1 kmh WSW 30.0 mph48.3 kmh 29.13 in986.5 mb 0.01 in0.3 mm 0.00 in/hr0.0 mm/hr 0.02 in0.5 mm
06:45 AM 39.0°F3.9°C 33.4°F0.8°C 80% 15.0 mph WSW24.1 kmh WSW 30.0 mph48.3 kmh 29.13 in986.5 mb 0.01 in0.3 mm 0.00 in/hr0.0 mm/hr 0.02 in0.5 mm
06:44 AM 39.0°F3.9°C 33.4°F0.8°C 80% 14.0 mph WSW22.5 kmh WSW 30.0 mph48.3 kmh 29.13 in986.5 mb 0.01 in0.3 mm 0.00 in/hr0.0 mm/hr 0.02 in0.5 mm
06:43 AM 39.0°F3.9°C 33.4°F0.8°C 80% 14.0 mph WSW22.5 kmh WSW 30.0 mph48.3 kmh 29.13 in986.5 mb 0.01 in0.3 mm 0.00 in/hr0.0 mm/hr 0.02 in0.5 mm
06:42 AM 39.0°F3.9°C 33.4°F0.8°C 80% 13.0 mph WSW20.9 kmh WSW 30.0 mph48.3 kmh 29.13 in986.5 mb 0.01 in0.3 mm 0.00 in/hr0.0 mm/hr 0.02 in0.5 mm
06:41 AM 39.0°F3.9°C 33.4°F0.8°C 80% 13.0 mph WSW20.9 kmh WSW 30.0 mph48.3 kmh 29.13 in986.5 mb 0.01 in0.3 mm 0.00 in/hr0.0 mm/hr 0.02 in0.5 mm
06:40 AM 39.0°F3.9°C 33.4°F0.8°C 80% 13.0 mph WSW20.9 kmh WSW 30.0 mph48.3 kmh 29.13 in986.5 mb 0.01 in0.3 mm 0.00 in/hr0.0 mm/hr 0.02 in0.5 mm
06:39 AM 39.0°F3.9°C 33.4°F0.8°C 80% 14.0 mph WSW22.5 kmh WSW 30.0 mph48.3 kmh 29.13 in986.5 mb 0.01 in0.3 mm 0.00 in/hr0.0 mm/hr 0.02 in0.5 mm
06:38 AM 38.8°F3.8°C 33.3°F0.7°C 80% 14.0 mph WSW22.5 kmh WSW 30.0 mph48.3 kmh 29.13 in986.5 mb 0.01 in0.3 mm 0.00 in/hr0.0 mm/hr 0.02 in0.5 mm
06:37 AM 38.8°F3.8°C 33.3°F0.7°C 80% 13.0 mph WSW20.9 kmh WSW 26.0 mph41.8 kmh 29.13 in986.5 mb 0.01 in0.3 mm 0.00 in/hr0.0 mm/hr 0.02 in0.5 mm
06:36 AM 38.8°F3.8°C 33.6°F0.9°C 81% 13.0 mph WSW20.9 kmh WSW 26.0 mph41.8 kmh 29.13 in986.5 mb 0.01 in0.3 mm 0.60 in/hr15.2 mm/hr 0.02 in0.5 mm
06:35 AM 38.8°F3.8°C 33.6°F0.9°C 81% 14.0 mph WSW22.5 kmh WSW 26.0 mph41.8 kmh 29.13 in986.5 mb 0.00 in0.0 mm 0.00 in/hr0.0 mm/hr 0.01 in0.3 mm
06:34 AM 38.8°F3.8°C 33.3°F0.7°C 80% 14.0 mph WSW22.5 kmh WSW 26.0 mph41.8 kmh 29.13 in986.5 mb 0.00 in0.0 mm 0.00 in/hr0.0 mm/hr 0.01 in0.3 mm
06:33 AM 38.8°F3.8°C 33.4°F0.8°C 81% 15.0 mph WSW24.1 kmh WSW 26.0 mph41.8 kmh 29.13 in986.5 mb 0.00 in0.0 mm 0.00 in/hr0.0 mm/hr 0.01 in0.3 mm
06:32 AM 38.8°F3.8°C 33.4°F0.8°C 81% 15.0 mph WSW24.1 kmh WSW 26.0 mph41.8 kmh 29.13 in986.5 mb 0.00 in0.0 mm 0.00 in/hr0.0 mm/hr 0.01 in0.3 mm
06:31 AM 38.8°F3.8°C 33.4°F0.8°C 81% 15.0 mph WSW24.1 kmh WSW 26.0 mph41.8 kmh 29.14 in986.8 mb 0.00 in0.0 mm 0.00 in/hr0.0 mm/hr 0.01 in0.3 mm
06:30 AM 38.8°F3.8°C 33.4°F0.8°C 81% 15.0 mph WSW24.1 kmh WSW 31.0 mph49.9 kmh 29.14 in986.8 mb 0.00 in0.0 mm 0.00 in/hr0.0 mm/hr 0.01 in0.3 mm
06:29 AM 38.7°F3.7°C 33.4°F0.8°C 81% 15.0 mph WSW24.1 kmh WSW 31.0 mph49.9 kmh 29.14 in986.8 mb 0.00 in0.0 mm 0.00 in/hr0.0 mm/hr 0.01 in0.3 mm
06:28 AM 38.7°F3.7°C 33.4°F0.8°C 81% 14.0 mph WSW22.5 kmh WSW 31.0 mph49.9 kmh 29.14 in986.8 mb 0.00 in0.0 mm 0.00 in/hr0.0 mm/hr 0.01 in0.3 mm
06:27 AM 38.7°F3.7°C 33.3°F0.7°C 81% 14.0 mph WSW22.5 kmh WSW 31.0 mph49.9 kmh 29.14 in986.8 mb 0.00 in0.0 mm 0.00 in/hr0.0 mm/hr 0.01 in0.3 mm
06:26 AM 38.7°F3.7°C 33.3°F0.7°C 81% 15.0 mph WSW24.1 kmh WSW 31.0 mph49.9 kmh 29.14 in986.8 mb 0.00 in0.0 mm 0.00 in/hr0.0 mm/hr 0.01 in0.3 mm
06:25 AM 38.5°F3.6°C 33.3°F0.7°C 81% 14.0 mph WSW22.5 kmh WSW 31.0 mph49.9 kmh 29.14 in986.8 mb 0.00 in0.0 mm 0.00 in/hr0.0 mm/hr 0.01 in0.3 mm
06:24 AM 38.5°F3.6°C 33.3°F0.7°C 81% 14.0 mph WSW22.5 kmh WSW 31.0 mph49.9 kmh 29.14 in986.8 mb 0.00 in0.0 mm 0.00 in/hr0.0 mm/hr 0.01 in0.3 mm
06:23 AM 38.5°F3.6°C 33.3°F0.7°C 81% 14.0 mph WSW22.5 kmh WSW 31.0 mph49.9 kmh 29.14 in986.8 mb 0.00 in0.0 mm 0.00 in/hr0.0 mm/hr 0.01 in0.3 mm
06:22 AM 38.5°F3.6°C 33.4°F0.8°C 82% 14.0 mph WSW22.5 kmh WSW 31.0 mph49.9 kmh 29.14 in986.8 mb 0.00 in0.0 mm 0.00 in/hr0.0 mm/hr 0.01 in0.3 mm
06:21 AM 38.5°F3.6°C 33.4°F0.8°C 82% 14.0 mph WSW22.5 kmh WSW 31.0 mph49.9 kmh 29.14 in986.8 mb 0.00 in0.0 mm 0.00 in/hr0.0 mm/hr 0.01 in0.3 mm
06:20 AM 38.7°F3.7°C 33.6°F0.9°C 82% 14.0 mph WSW22.5 kmh WSW 27.0 mph43.5 kmh 29.14 in986.8 mb 0.00 in0.0 mm 0.00 in/hr0.0 mm/hr 0.01 in0.3 mm
06:19 AM 38.7°F3.7°C 33.6°F0.9°C 82% 14.0 mph WSW22.5 kmh WSW 27.0 mph43.5 kmh 29.14 in986.8 mb 0.00 in0.0 mm 0.00 in/hr0.0 mm/hr 0.01 in0.3 mm
06:18 AM 38.7°F3.7°C 33.6°F0.9°C 82% 14.0 mph WSW22.5 kmh WSW 27.0 mph43.5 kmh 29.14 in986.8 mb 0.00 in0.0 mm 0.00 in/hr0.0 mm/hr 0.01 in0.3 mm
06:17 AM 38.7°F3.7°C 33.6°F0.9°C 82% 14.0 mph WSW22.5 kmh WSW 27.0 mph43.5 kmh 29.14 in986.8 mb 0.00 in0.0 mm 0.00 in/hr0.0 mm/hr 0.01 in0.3 mm
06:16 AM 38.7°F3.7°C 33.6°F0.9°C 82% 14.0 mph WSW22.5 kmh WSW 27.0 mph43.5 kmh 29.14 in986.8 mb 0.00 in0.0 mm 0.00 in/hr0.0 mm/hr 0.01 in0.3 mm
06:15 AM 38.7°F3.7°C 33.6°F0.9°C 82% 14.0 mph WSW22.5 kmh WSW 27.0 mph43.5 kmh 29.14 in986.8 mb 0.00 in0.0 mm 0.00 in/hr0.0 mm/hr 0.01 in0.3 mm
06:14 AM 38.7°F3.7°C 33.4°F0.8°C 81% 14.0 mph WSW22.5 kmh WSW 27.0 mph43.5 kmh 29.14 in986.8 mb 0.00 in0.0 mm 0.00 in/hr0.0 mm/hr 0.01 in0.3 mm
06:13 AM 38.7°F3.7°C 33.4°F0.8°C 81% 15.0 mph WSW24.1 kmh WSW 27.0 mph43.5 kmh 29.15 in987.1 mb 0.00 in0.0 mm 0.00 in/hr0.0 mm/hr 0.01 in0.3 mm
06:12 AM 38.8°F3.8°C 33.1°F0.6°C 80% 15.0 mph WSW24.1 kmh WSW 27.0 mph43.5 kmh 29.14 in986.8 mb 0.00 in0.0 mm 0.00 in/hr0.0 mm/hr 0.01 in0.3 mm
06:11 AM 38.8°F3.8°C 32.9°F0.5°C 79% 14.0 mph WSW22.5 kmh WSW 27.0 mph43.5 kmh 29.14 in986.8 mb 0.00 in0.0 mm 0.00 in/hr0.0 mm/hr 0.01 in0.3 mm
06:10 AM 39.0°F3.9°C 33.1°F0.6°C 79% 14.0 mph WSW22.5 kmh WSW 27.0 mph43.5 kmh 29.14 in986.8 mb 0.00 in0.0 mm 0.00 in/hr0.0 mm/hr 0.01 in0.3 mm
06:09 AM 39.2°F4.0°C 32.9°F0.5°C 78% 15.0 mph WSW24.1 kmh WSW 27.0 mph43.5 kmh 29.15 in987.1 mb 0.00 in0.0 mm 0.00 in/hr0.0 mm/hr 0.01 in0.3 mm
06:08 AM 39.4°F4.1°C 33.1°F0.6°C 78% 15.0 mph WSW24.1 kmh WSW 27.0 mph43.5 kmh 29.15 in987.1 mb 0.00 in0.0 mm 0.00 in/hr0.0 mm/hr 0.01 in0.3 mm
06:07 AM 39.6°F4.2°C 32.9°F0.5°C 77% 15.0 mph WSW24.1 kmh WSW 27.0 mph43.5 kmh 29.15 in987.1 mb 0.00 in0.0 mm 0.00 in/hr0.0 mm/hr 0.01 in0.3 mm
06:06 AM 39.7°F4.3°C 33.1°F0.6°C 77% 15.0 mph WSW24.1 kmh WSW 25.0 mph40.2 kmh 29.15 in987.1 mb 0.00 in0.0 mm 0.00 in/hr0.0 mm/hr 0.01 in0.3 mm
06:05 AM 39.7°F4.3°C 33.1°F0.6°C 77% 15.0 mph WSW24.1 kmh WSW 25.0 mph40.2 kmh 29.15 in987.1 mb 0.00 in0.0 mm 0.00 in/hr0.0 mm/hr 0.01 in0.3 mm
06:04 AM 39.7°F4.3°C 33.1°F0.6°C 77% 15.0 mph WSW24.1 kmh WSW 25.0 mph40.2 kmh 29.15 in987.1 mb 0.00 in0.0 mm 0.00 in/hr0.0 mm/hr 0.01 in0.3 mm
06:03 AM 39.7°F4.3°C 33.1°F0.6°C 77% 15.0 mph WSW24.1 kmh WSW 25.0 mph40.2 kmh 29.15 in987.1 mb 0.00 in0.0 mm 0.00 in/hr0.0 mm/hr 0.01 in0.3 mm
06:02 AM 39.6°F4.2°C 32.9°F0.5°C 77% 15.0 mph WSW24.1 kmh WSW 25.0 mph40.2 kmh 29.15 in987.1 mb 0.00 in0.0 mm 0.00 in/hr0.0 mm/hr 0.01 in0.3 mm
06:01 AM 39.6°F4.2°C 32.9°F0.5°C 77% 15.0 mph WSW24.1 kmh WSW 25.0 mph40.2 kmh 29.15 in987.1 mb 0.00 in0.0 mm 0.00 in/hr0.0 mm/hr 0.01 in0.3 mm
06:00 AM 39.6°F4.2°C 32.9°F0.5°C 77% 15.0 mph WSW24.1 kmh WSW 25.0 mph40.2 kmh 29.15 in987.1 mb 0.00 in0.0 mm 0.00 in/hr0.0 mm/hr 0.01 in0.3 mm
05:59 AM 39.6°F4.2°C 32.9°F0.5°C 77% 14.0 mph WSW22.5 kmh WSW 25.0 mph40.2 kmh 29.15 in987.1 mb 0.00 in0.0 mm 0.00 in/hr0.0 mm/hr 0.01 in0.3 mm
05:58 AM 39.7°F4.3°C 33.4°F0.8°C 78% 14.0 mph WSW22.5 kmh WSW 26.0 mph41.8 kmh 29.16 in987.5 mb 0.00 in0.0 mm 0.00 in/hr0.0 mm/hr 0.01 in0.3 mm
05:57 AM 39.7°F4.3°C 33.4°F0.8°C 78% 13.0 mph WSW20.9 kmh WSW 26.0 mph41.8 kmh 29.15 in987.1 mb 0.00 in0.0 mm 0.00 in/hr0.0 mm/hr 0.01 in0.3 mm
05:56 AM 39.7°F4.3°C 33.4°F0.8°C 78% 14.0 mph WSW22.5 kmh WSW 26.0 mph41.8 kmh 29.15 in987.1 mb 0.00 in0.0 mm 0.00 in/hr0.0 mm/hr 0.01 in0.3 mm
05:55 AM 39.7°F4.3°C 33.4°F0.8°C 78% 13.0 mph WSW20.9 kmh WSW 26.0 mph41.8 kmh 29.16 in987.5 mb 0.00 in0.0 mm 0.00 in/hr0.0 mm/hr 0.01 in0.3 mm
05:54 AM 39.7°F4.3°C 33.4°F0.8°C 78% 14.0 mph WSW22.5 kmh WSW 26.0 mph41.8 kmh 29.16 in987.5 mb 0.00 in0.0 mm 0.00 in/hr0.0 mm/hr 0.01 in0.3 mm
05:53 AM 39.7°F4.3°C 33.4°F0.8°C 78% 14.0 mph WSW22.5 kmh WSW 27.0 mph43.5 kmh 29.16 in987.5 mb 0.00 in0.0 mm 0.00 in/hr0.0 mm/hr 0.01 in0.3 mm
05:52 AM 39.7°F4.3°C 33.4°F0.8°C 78% 15.0 mph WSW24.1 kmh WSW 27.0 mph43.5 kmh 29.16 in987.5 mb 0.00 in0.0 mm 0.00 in/hr0.0 mm/hr 0.01 in0.3 mm
05:51 AM 39.7°F4.3°C 33.4°F0.8°C 78% 15.0 mph WSW24.1 kmh WSW 28.0 mph45.1 kmh 29.16 in987.5 mb 0.00 in0.0 mm 0.00 in/hr0.0 mm/hr 0.01 in0.3 mm
05:50 AM 39.7°F4.3°C 33.3°F0.7°C 77% 16.0 mph WSW25.7 kmh WSW 28.0 mph45.1 kmh 29.16 in987.5 mb 0.00 in0.0 mm 0.00 in/hr0.0 mm/hr 0.01 in0.3 mm
05:49 AM 39.7°F4.3°C 33.3°F0.7°C 77% 16.0 mph WSW25.7 kmh WSW 28.0 mph45.1 kmh 29.16 in987.5 mb 0.00 in0.0 mm 0.00 in/hr0.0 mm/hr 0.01 in0.3 mm
05:48 AM 39.7°F4.3°C 33.3°F0.7°C 77% 16.0 mph WSW25.7 kmh WSW 28.0 mph45.1 kmh 29.16 in987.5 mb 0.00 in0.0 mm 0.00 in/hr0.0 mm/hr 0.01 in0.3 mm
05:47 AM 39.7°F4.3°C 33.3°F0.7°C 77% 16.0 mph WSW25.7 kmh WSW 28.0 mph45.1 kmh 29.16 in987.5 mb 0.00 in0.0 mm 0.00 in/hr0.0 mm/hr 0.01 in0.3 mm
05:46 AM 39.7°F4.3°C 33.3°F0.7°C 77% 17.0 mph WSW27.4 kmh WSW 28.0 mph45.1 kmh 29.16 in987.5 mb 0.00 in0.0 mm 0.00 in/hr0.0 mm/hr 0.01 in0.3 mm
05:45 AM 39.7°F4.3°C 33.3°F0.7°C 77% 17.0 mph WSW27.4 kmh WSW 28.0 mph45.1 kmh 29.16 in987.5 mb 0.00 in0.0 mm 0.00 in/hr0.0 mm/hr 0.01 in0.3 mm
05:44 AM 39.7°F4.3°C 33.3°F0.7°C 77% 17.0 mph WSW27.4 kmh WSW 28.0 mph45.1 kmh 29.16 in987.5 mb 0.00 in0.0 mm 0.00 in/hr0.0 mm/hr 0.01 in0.3 mm
05:43 AM 39.7°F4.3°C 33.3°F0.7°C 77% 17.0 mph WSW27.4 kmh WSW 28.0 mph45.1 kmh 29.16 in987.5 mb 0.00 in0.0 mm 0.00 in/hr0.0 mm/hr 0.01 in0.3 mm
05:42 AM 39.7°F4.3°C 33.3°F0.7°C 77% 17.0 mph WSW27.4 kmh WSW 28.0 mph45.1 kmh 29.16 in987.5 mb 0.00 in0.0 mm 0.00 in/hr0.0 mm/hr 0.01 in0.3 mm
05:41 AM 39.7°F4.3°C 32.9°F0.5°C 76% 16.0 mph WSW25.7 kmh WSW 28.0 mph45.1 kmh 29.16 in987.5 mb 0.00 in0.0 mm 0.00 in/hr0.0 mm/hr 0.01 in0.3 mm
05:40 AM 39.7°F4.3°C 32.7°F0.4°C 76% 16.0 mph WSW25.7 kmh WSW 28.0 mph45.1 kmh 29.16 in987.5 mb 0.00 in0.0 mm 0.00 in/hr0.0 mm/hr 0.01 in0.3 mm
05:39 AM 39.7°F4.3°C 32.7°F0.4°C 76% 16.0 mph WSW25.7 kmh WSW 28.0 mph45.1 kmh 29.16 in987.5 mb 0.00 in0.0 mm 0.00 in/hr0.0 mm/hr 0.01 in0.3 mm
05:38 AM 39.7°F4.3°C 33.1°F0.6°C 77% 16.0 mph WSW25.7 kmh WSW 28.0 mph45.1 kmh 29.16 in987.5 mb 0.00 in0.0 mm 0.00 in/hr0.0 mm/hr 0.01 in0.3 mm
05:37 AM 39.7°F4.3°C 33.1°F0.6°C 77% 15.0 mph WSW24.1 kmh WSW 28.0 mph45.1 kmh 29.16 in987.5 mb 0.00 in0.0 mm 0.00 in/hr0.0 mm/hr 0.01 in0.3 mm
05:36 AM 39.7°F4.3°C 33.1°F0.6°C 77% 15.0 mph WSW24.1 kmh WSW 28.0 mph45.1 kmh 29.16 in987.5 mb 0.00 in0.0 mm 0.00 in/hr0.0 mm/hr 0.01 in0.3 mm
05:35 AM 39.7°F4.3°C 33.3°F0.7°C 77% 15.0 mph WSW24.1 kmh WSW 28.0 mph45.1 kmh 29.16 in987.5 mb 0.00 in0.0 mm 0.00 in/hr0.0 mm/hr 0.01 in0.3 mm
05:34 AM 39.7°F4.3°C 33.1°F0.6°C 77% 15.0 mph WSW24.1 kmh WSW 30.0 mph48.3 kmh 29.16 in987.5 mb 0.00 in0.0 mm 0.00 in/hr0.0 mm/hr 0.01 in0.3 mm
05:33 AM 39.7°F4.3°C 33.3°F0.7°C 77% 15.0 mph WSW24.1 kmh WSW 30.0 mph48.3 kmh 29.17 in987.8 mb 0.00 in0.0 mm 0.00 in/hr0.0 mm/hr 0.01 in0.3 mm
05:32 AM 39.7°F4.3°C 33.3°F0.7°C 77% 15.0 mph WSW24.1 kmh WSW 30.0 mph48.3 kmh 29.16 in987.5 mb 0.00 in0.0 mm 0.00 in/hr0.0 mm/hr 0.01 in0.3 mm
05:31 AM 39.7°F4.3°C 33.3°F0.7°C 77% 15.0 mph WSW24.1 kmh WSW 30.0 mph48.3 kmh 29.17 in987.8 mb 0.00 in0.0 mm 0.00 in/hr0.0 mm/hr 0.01 in0.3 mm
05:30 AM 39.7°F4.3°C 33.1°F0.6°C 77% 15.0 mph WSW24.1 kmh WSW 30.0 mph48.3 kmh 29.17 in987.8 mb 0.00 in0.0 mm 0.00 in/hr0.0 mm/hr 0.01 in0.3 mm
05:29 AM 39.7°F4.3°C 33.3°F0.7°C 77% 15.0 mph WSW24.1 kmh WSW 31.0 mph49.9 kmh 29.17 in987.8 mb 0.00 in0.0 mm 0.00 in/hr0.0 mm/hr 0.01 in0.3 mm
05:28 AM 39.7°F4.3°C 33.3°F0.7°C 77% 16.0 mph WSW25.7 kmh WSW 31.0 mph49.9 kmh 29.17 in987.8 mb 0.00 in0.0 mm 0.00 in/hr0.0 mm/hr 0.01 in0.3 mm
05:27 AM 39.7°F4.3°C 33.3°F0.7°C 77% 16.0 mph WSW25.7 kmh WSW 31.0 mph49.9 kmh 29.17 in987.8 mb 0.00 in0.0 mm 0.00 in/hr0.0 mm/hr 0.01 in0.3 mm
05:26 AM 39.7°F4.3°C 33.3°F0.7°C 77% 16.0 mph WSW25.7 kmh WSW 31.0 mph49.9 kmh 29.17 in987.8 mb 0.00 in0.0 mm 0.00 in/hr0.0 mm/hr 0.01 in0.3 mm
05:25 AM 39.7°F4.3°C 33.1°F0.6°C 77% 16.0 mph WSW25.7 kmh WSW 31.0 mph49.9 kmh 29.17 in987.8 mb 0.00 in0.0 mm 0.00 in/hr0.0 mm/hr 0.01 in0.3 mm
05:24 AM 39.7°F4.3°C 33.3°F0.7°C 77% 15.0 mph WSW24.1 kmh WSW 31.0 mph49.9 kmh 29.17 in987.8 mb 0.00 in0.0 mm 0.00 in/hr0.0 mm/hr 0.01 in0.3 mm
05:23 AM 39.7°F4.3°C 33.3°F0.7°C 77% 15.0 mph WSW24.1 kmh WSW 31.0 mph49.9 kmh 29.17 in987.8 mb 0.00 in0.0 mm 0.00 in/hr0.0 mm/hr 0.01 in0.3 mm
05:22 AM 39.7°F4.3°C 33.3°F0.7°C 77% 15.0 mph WSW24.1 kmh WSW 31.0 mph49.9 kmh 29.17 in987.8 mb 0.00 in0.0 mm 0.00 in/hr0.0 mm/hr 0.01 in0.3 mm
05:21 AM 39.7°F4.3°C 33.3°F0.7°C 77% 15.0 mph WSW24.1 kmh WSW 31.0 mph49.9 kmh 29.17 in987.8 mb 0.00 in0.0 mm 0.00 in/hr0.0 mm/hr 0.01 in0.3 mm
05:20 AM 39.7°F4.3°C 33.3°F0.7°C 77% 14.0 mph WSW22.5 kmh WSW 31.0 mph49.9 kmh 29.17 in987.8 mb 0.00 in0.0 mm 0.00 in/hr0.0 mm/hr 0.01 in0.3 mm
05:19 AM 39.7°F4.3°C 33.3°F0.7°C 77% 14.0 mph WSW22.5 kmh WSW 31.0 mph49.9 kmh 29.17 in987.8 mb 0.00 in0.0 mm 0.00 in/hr0.0 mm/hr 0.01 in0.3 mm
05:18 AM 39.7°F4.3°C 33.3°F0.7°C 77% 15.0 mph WSW24.1 kmh WSW 31.0 mph49.9 kmh 29.17 in987.8 mb 0.00 in0.0 mm 0.00 in/hr0.0 mm/hr 0.01 in0.3 mm
05:17 AM 39.7°F4.3°C 33.3°F0.7°C 77% 14.0 mph WSW22.5 kmh WSW 31.0 mph49.9 kmh 29.17 in987.8 mb 0.00 in0.0 mm 0.00 in/hr0.0 mm/hr 0.01 in0.3 mm
05:16 AM 39.7°F4.3°C 33.3°F0.7°C 77% 15.0 mph WSW24.1 kmh WSW 31.0 mph49.9 kmh 29.17 in987.8 mb 0.00 in0.0 mm 0.00 in/hr0.0 mm/hr 0.01 in0.3 mm
05:15 AM 39.7°F4.3°C 33.4°F0.8°C 78% 15.0 mph WSW24.1 kmh WSW 31.0 mph49.9 kmh 29.18 in988.1 mb 0.00 in0.0 mm 0.00 in/hr0.0 mm/hr 0.01 in0.3 mm
05:14 AM 39.7°F4.3°C 33.4°F0.8°C 78% 15.0 mph WSW24.1 kmh WSW 31.0 mph49.9 kmh 29.18 in988.1 mb 0.00 in0.0 mm 0.00 in/hr0.0 mm/hr 0.01 in0.3 mm
05:13 AM 39.7°F4.3°C 33.4°F0.8°C 78% 15.0 mph WSW24.1 kmh WSW 31.0 mph49.9 kmh 29.17 in987.8 mb 0.00 in0.0 mm 0.00 in/hr0.0 mm/hr 0.01 in0.3 mm
05:12 AM 39.7°F4.3°C 33.3°F0.7°C 77% 15.0 mph WSW24.1 kmh WSW 31.0 mph49.9 kmh 29.18 in988.1 mb 0.00 in0.0 mm 0.00 in/hr0.0 mm/hr 0.01 in0.3 mm
05:11 AM 39.7°F4.3°C 33.3°F0.7°C 77% 16.0 mph WSW25.7 kmh WSW 31.0 mph49.9 kmh 29.17 in987.8 mb 0.00 in0.0 mm 0.00 in/hr0.0 mm/hr 0.01 in0.3 mm
05:10 AM 39.7°F4.3°C 33.4°F0.8°C 78% 16.0 mph WSW25.7 kmh WSW 31.0 mph49.9 kmh 29.18 in988.1 mb 0.00 in0.0 mm 0.00 in/hr0.0 mm/hr 0.01 in0.3 mm
05:09 AM 39.7°F4.3°C 33.4°F0.8°C 78% 17.0 mph WSW27.4 kmh WSW 31.0 mph49.9 kmh 29.17 in987.8 mb 0.01 in0.3 mm 0.00 in/hr0.0 mm/hr 0.01 in0.3 mm
05:08 AM 39.7°F4.3°C 33.4°F0.8°C 78% 17.0 mph WSW27.4 kmh WSW 31.0 mph49.9 kmh 29.18 in988.1 mb 0.01 in0.3 mm 0.00 in/hr0.0 mm/hr 0.01 in0.3 mm
05:07 AM 39.7°F4.3°C 33.4°F0.8°C 78% 17.0 mph WSW27.4 kmh WSW 32.0 mph51.5 kmh 29.18 in988.1 mb 0.01 in0.3 mm 0.00 in/hr0.0 mm/hr 0.01 in0.3 mm
05:06 AM 39.7°F4.3°C 33.4°F0.8°C 78% 17.0 mph WSW27.4 kmh WSW 32.0 mph51.5 kmh 29.18 in988.1 mb 0.01 in0.3 mm 0.00 in/hr0.0 mm/hr 0.01 in0.3 mm
05:05 AM 39.7°F4.3°C 33.4°F0.8°C 78% 16.0 mph WSW25.7 kmh WSW 32.0 mph51.5 kmh 29.18 in988.1 mb 0.01 in0.3 mm 0.00 in/hr0.0 mm/hr 0.01 in0.3 mm
05:04 AM 39.7°F4.3°C 33.4°F0.8°C 78% 16.0 mph WSW25.7 kmh WSW 32.0 mph51.5 kmh 29.18 in988.1 mb 0.01 in0.3 mm 0.00 in/hr0.0 mm/hr 0.01 in0.3 mm
05:03 AM 39.7°F4.3°C 33.4°F0.8°C 78% 16.0 mph WSW25.7 kmh WSW 32.0 mph51.5 kmh 29.18 in988.1 mb 0.01 in0.3 mm 0.00 in/hr0.0 mm/hr 0.01 in0.3 mm
05:02 AM 39.7°F4.3°C 33.4°F0.8°C 78% 16.0 mph WSW25.7 kmh WSW 32.0 mph51.5 kmh 29.18 in988.1 mb 0.01 in0.3 mm 0.00 in/hr0.0 mm/hr 0.01 in0.3 mm
05:01 AM 39.7°F4.3°C 33.4°F0.8°C 78% 16.0 mph WSW25.7 kmh WSW 32.0 mph51.5 kmh 29.18 in988.1 mb 0.01 in0.3 mm 0.00 in/hr0.0 mm/hr 0.01 in0.3 mm
05:00 AM 39.7°F4.3°C 33.4°F0.8°C 78% 16.0 mph WSW25.7 kmh WSW 32.0 mph51.5 kmh 29.18 in988.1 mb 0.01 in0.3 mm 0.00 in/hr0.0 mm/hr 0.01 in0.3 mm
04:59 AM 39.7°F4.3°C 33.4°F0.8°C 78% 15.0 mph WSW24.1 kmh WSW 32.0 mph51.5 kmh 29.18 in988.1 mb 0.01 in0.3 mm 0.00 in/hr0.0 mm/hr 0.01 in0.3 mm
04:58 AM 39.7°F4.3°C 33.8°F1.0°C 79% 15.0 mph WSW24.1 kmh WSW 32.0 mph51.5 kmh 29.18 in988.1 mb 0.01 in0.3 mm 0.00 in/hr0.0 mm/hr 0.01 in0.3 mm
04:57 AM 39.7°F4.3°C 33.8°F1.0°C 79% 15.0 mph WSW24.1 kmh WSW 28.0 mph45.1 kmh 29.18 in988.1 mb 0.01 in0.3 mm 0.00 in/hr0.0 mm/hr 0.01 in0.3 mm
04:56 AM 39.7°F4.3°C 33.8°F1.0°C 79% 16.0 mph WSW25.7 kmh WSW 28.0 mph45.1 kmh 29.18 in988.1 mb 0.01 in0.3 mm 0.00 in/hr0.0 mm/hr 0.01 in0.3 mm
04:55 AM 39.7°F4.3°C 33.8°F1.0°C 79% 17.0 mph WSW27.4 kmh WSW 34.0 mph54.7 kmh 29.18 in988.1 mb 0.01 in0.3 mm 0.00 in/hr0.0 mm/hr 0.01 in0.3 mm
04:54 AM 39.7°F4.3°C 33.8°F1.0°C 79% 17.0 mph WSW27.4 kmh WSW 34.0 mph54.7 kmh 29.18 in988.1 mb 0.01 in0.3 mm 0.00 in/hr0.0 mm/hr 0.01 in0.3 mm
04:53 AM 39.7°F4.3°C 33.8°F1.0°C 79% 17.0 mph WSW27.4 kmh WSW 34.0 mph54.7 kmh 29.18 in988.1 mb 0.01 in0.3 mm 0.00 in/hr0.0 mm/hr 0.01 in0.3 mm
04:52 AM 39.7°F4.3°C 33.8°F1.0°C 79% 17.0 mph WSW27.4 kmh WSW 34.0 mph54.7 kmh 29.18 in988.1 mb 0.01 in0.3 mm 0.00 in/hr0.0 mm/hr 0.01 in0.3 mm
04:51 AM 39.6°F4.2°C 33.6°F0.9°C 79% 17.0 mph WSW27.4 kmh WSW 34.0 mph54.7 kmh 29.18 in988.1 mb 0.01 in0.3 mm 0.00 in/hr0.0 mm/hr 0.01 in0.3 mm
04:50 AM 39.6°F4.2°C 33.6°F0.9°C 79% 17.0 mph WSW27.4 kmh WSW 34.0 mph54.7 kmh 29.18 in988.1 mb 0.01 in0.3 mm 0.00 in/hr0.0 mm/hr 0.01 in0.3 mm
04:49 AM 39.6°F4.2°C 33.4°F0.8°C 79% 17.0 mph WSW27.4 kmh WSW 34.0 mph54.7 kmh 29.18 in988.1 mb 0.01 in0.3 mm 0.00 in/hr0.0 mm/hr 0.01 in0.3 mm
04:48 AM 39.6°F4.2°C 33.4°F0.8°C 79% 16.0 mph WSW25.7 kmh WSW 34.0 mph54.7 kmh 29.18 in988.1 mb 0.01 in0.3 mm 0.00 in/hr0.0 mm/hr 0.01 in0.3 mm
04:47 AM 39.4°F4.1°C 33.4°F0.8°C 79% 16.0 mph WSW25.7 kmh WSW 34.0 mph54.7 kmh 29.18 in988.1 mb 0.01 in0.3 mm 0.00 in/hr0.0 mm/hr 0.01 in0.3 mm
04:46 AM 39.4°F4.1°C 33.4°F0.8°C 79% 16.0 mph WSW25.7 kmh WSW 34.0 mph54.7 kmh 29.18 in988.1 mb 0.01 in0.3 mm 0.00 in/hr0.0 mm/hr 0.01 in0.3 mm
04:45 AM 39.4°F4.1°C 33.4°F0.8°C 79% 16.0 mph WSW25.7 kmh WSW 30.0 mph48.3 kmh 29.18 in988.1 mb 0.01 in0.3 mm 0.00 in/hr0.0 mm/hr 0.01 in0.3 mm
04:44 AM 39.6°F4.2°C 33.4°F0.8°C 79% 15.0 mph WSW24.1 kmh WSW 28.0 mph45.1 kmh 29.18 in988.1 mb 0.01 in0.3 mm 0.00 in/hr0.0 mm/hr 0.01 in0.3 mm
04:43 AM 39.6°F4.2°C 33.4°F0.8°C 79% 16.0 mph WSW25.7 kmh WSW 28.0 mph45.1 kmh 29.18 in988.1 mb 0.01 in0.3 mm 0.00 in/hr0.0 mm/hr 0.01 in0.3 mm
04:42 AM 39.6°F4.2°C 33.4°F0.8°C 79% 15.0 mph WSW24.1 kmh WSW 28.0 mph45.1 kmh 29.18 in988.1 mb 0.01 in0.3 mm 0.00 in/hr0.0 mm/hr 0.01 in0.3 mm
04:41 AM 39.6°F4.2°C 33.6°F0.9°C 79% 15.0 mph WSW24.1 kmh WSW 28.0 mph45.1 kmh 29.18 in988.1 mb 0.01 in0.3 mm 0.00 in/hr0.0 mm/hr 0.01 in0.3 mm
04:40 AM 39.7°F4.3°C 33.8°F1.0°C 79% 16.0 mph WSW25.7 kmh WSW 28.0 mph45.1 kmh 29.18 in988.1 mb 0.01 in0.3 mm 0.00 in/hr0.0 mm/hr 0.01 in0.3 mm
04:39 AM 39.7°F4.3°C 33.8°F1.0°C 79% 16.0 mph WSW25.7 kmh WSW 28.0 mph45.1 kmh 29.19 in988.5 mb 0.01 in0.3 mm 0.00 in/hr0.0 mm/hr 0.01 in0.3 mm
04:38 AM 39.7°F4.3°C 33.4°F0.8°C 78% 16.0 mph WSW25.7 kmh WSW 29.0 mph46.7 kmh 29.19 in988.5 mb 0.01 in0.3 mm 0.00 in/hr0.0 mm/hr 0.01 in0.3 mm
04:37 AM 39.9°F4.4°C 33.3°F0.7°C 77% 17.0 mph WSW27.4 kmh WSW 32.0 mph51.5 kmh 29.19 in988.5 mb 0.01 in0.3 mm 0.00 in/hr0.0 mm/hr 0.01 in0.3 mm
04:36 AM 39.9°F4.4°C 33.4°F0.8°C 77% 17.0 mph WSW27.4 kmh WSW 35.0 mph56.3 kmh 29.19 in988.5 mb 0.01 in0.3 mm 0.00 in/hr0.0 mm/hr 0.01 in0.3 mm
04:35 AM 40.1°F4.5°C 33.4°F0.8°C 77% 17.0 mph WSW27.4 kmh WSW 35.0 mph56.3 kmh 29.18 in988.1 mb 0.01 in0.3 mm 0.00 in/hr0.0 mm/hr 0.01 in0.3 mm
04:34 AM 40.3°F4.6°C 33.3°F0.7°C 76% 17.0 mph WSW27.4 kmh WSW 35.0 mph56.3 kmh 29.19 in988.5 mb 0.01 in0.3 mm 0.00 in/hr0.0 mm/hr 0.01 in0.3 mm
04:33 AM 40.3°F4.6°C 33.3°F0.7°C 76% 17.0 mph WSW27.4 kmh WSW 35.0 mph56.3 kmh 29.19 in988.5 mb 0.01 in0.3 mm 0.00 in/hr0.0 mm/hr 0.01 in0.3 mm
04:32 AM 40.3°F4.6°C 33.3°F0.7°C 76% 18.0 mph WSW29.0 kmh WSW 35.0 mph56.3 kmh 29.19 in988.5 mb 0.01 in0.3 mm 0.00 in/hr0.0 mm/hr 0.01 in0.3 mm
04:31 AM 40.3°F4.6°C 33.3°F0.7°C 76% 18.0 mph WSW29.0 kmh WSW 35.0 mph56.3 kmh 29.19 in988.5 mb 0.01 in0.3 mm 0.00 in/hr0.0 mm/hr 0.01 in0.3 mm
04:30 AM 40.3°F4.6°C 33.3°F0.7°C 76% 18.0 mph WSW29.0 kmh WSW 35.0 mph56.3 kmh 29.19 in988.5 mb 0.01 in0.3 mm 0.00 in/hr0.0 mm/hr 0.01 in0.3 mm
04:29 AM 40.3°F4.6°C 33.3°F0.7°C 76% 17.0 mph WSW27.4 kmh WSW 35.0 mph56.3 kmh 29.19 in988.5 mb 0.01 in0.3 mm 0.00 in/hr0.0 mm/hr 0.01 in0.3 mm
04:28 AM 40.3°F4.6°C 33.3°F0.7°C 76% 17.0 mph WSW27.4 kmh WSW 35.0 mph56.3 kmh 29.19 in988.5 mb 0.01 in0.3 mm 0.00 in/hr0.0 mm/hr 0.01 in0.3 mm
04:27 AM 40.5°F4.7°C 33.4°F0.8°C 76% 16.0 mph WSW25.7 kmh WSW 35.0 mph56.3 kmh 29.19 in988.5 mb 0.01 in0.3 mm 0.00 in/hr0.0 mm/hr 0.01 in0.3 mm
04:26 AM 40.5°F4.7°C 33.4°F0.8°C 76% 16.0 mph WSW25.7 kmh WSW 29.0 mph46.7 kmh 29.19 in988.5 mb 0.01 in0.3 mm 0.00 in/hr0.0 mm/hr 0.01 in0.3 mm
04:25 AM 40.5°F4.7°C 33.4°F0.8°C 76% 17.0 mph WSW27.4 kmh WSW 29.0 mph46.7 kmh 29.19 in988.5 mb 0.01 in0.3 mm 0.00 in/hr0.0 mm/hr 0.01 in0.3 mm
04:24 AM 40.5°F4.7°C 33.4°F0.8°C 76% 17.0 mph WSW27.4 kmh WSW 29.0 mph46.7 kmh 29.20 in988.8 mb 0.01 in0.3 mm 0.00 in/hr0.0 mm/hr 0.01 in0.3 mm
04:23 AM 40.5°F4.7°C 33.4°F0.8°C 76% 16.0 mph WSW25.7 kmh WSW 29.0 mph46.7 kmh 29.19 in988.5 mb 0.01 in0.3 mm 0.00 in/hr0.0 mm/hr 0.01 in0.3 mm
04:22 AM 40.5°F4.7°C 33.4°F0.8°C 76% 16.0 mph WSW25.7 kmh WSW 29.0 mph46.7 kmh 29.19 in988.5 mb 0.01 in0.3 mm 0.00 in/hr0.0 mm/hr 0.01 in0.3 mm
04:21 AM 40.5°F4.7°C 33.8°F1.0°C 77% 16.0 mph WSW25.7 kmh WSW 29.0 mph46.7 kmh 29.20 in988.8 mb 0.01 in0.3 mm 0.00 in/hr0.0 mm/hr 0.01 in0.3 mm
04:20 AM 40.5°F4.7°C 33.4°F0.8°C 76% 17.0 mph WSW27.4 kmh WSW 30.0 mph48.3 kmh 29.20 in988.8 mb 0.01 in0.3 mm 0.00 in/hr0.0 mm/hr 0.01 in0.3 mm
04:19 AM 40.5°F4.7°C 33.4°F0.8°C 76% 17.0 mph WSW27.4 kmh WSW 30.0 mph48.3 kmh 29.20 in988.8 mb 0.01 in0.3 mm 0.00 in/hr0.0 mm/hr 0.01 in0.3 mm
04:18 AM 40.5°F4.7°C 33.4°F0.8°C 76% 16.0 mph WSW25.7 kmh WSW 30.0 mph48.3 kmh 29.19 in988.5 mb 0.01 in0.3 mm 0.00 in/hr0.0 mm/hr 0.01 in0.3 mm
04:17 AM 40.5°F4.7°C 33.4°F0.8°C 76% 17.0 mph WSW27.4 kmh WSW 30.0 mph48.3 kmh 29.20 in988.8 mb 0.01 in0.3 mm 0.00 in/hr0.0 mm/hr 0.01 in0.3 mm
04:16 AM 40.5°F4.7°C 33.4°F0.8°C 76% 17.0 mph WSW27.4 kmh WSW 30.0 mph48.3 kmh 29.20 in988.8 mb 0.01 in0.3 mm 0.00 in/hr0.0 mm/hr 0.01 in0.3 mm
04:15 AM 40.5°F4.7°C 33.4°F0.8°C 76% 17.0 mph WSW27.4 kmh WSW 34.0 mph54.7 kmh 29.20 in988.8 mb 0.01 in0.3 mm 0.00 in/hr0.0 mm/hr 0.01 in0.3 mm
04:14 AM 40.3°F4.6°C 33.3°F0.7°C 76% 18.0 mph WSW29.0 kmh WSW 34.0 mph54.7 kmh 29.20 in988.8 mb 0.01 in0.3 mm 0.00 in/hr0.0 mm/hr 0.01 in0.3 mm
04:13 AM 40.3°F4.6°C 33.3°F0.7°C 76% 18.0 mph WSW29.0 kmh WSW 34.0 mph54.7 kmh 29.20 in988.8 mb 0.01 in0.3 mm 0.00 in/hr0.0 mm/hr 0.01 in0.3 mm
04:12 AM 40.3°F4.6°C 33.3°F0.7°C 76% 18.0 mph WSW29.0 kmh WSW 34.0 mph54.7 kmh 29.20 in988.8 mb 0.01 in0.3 mm 0.00 in/hr0.0 mm/hr 0.01 in0.3 mm
04:11 AM 40.3°F4.6°C 33.3°F0.7°C 76% 17.0 mph WSW27.4 kmh WSW 34.0 mph54.7 kmh 29.20 in988.8 mb 0.01 in0.3 mm 0.60 in/hr15.2 mm/hr 0.01 in0.3 mm
04:10 AM 40.3°F4.6°C 33.3°F0.7°C 76% 17.0 mph WSW27.4 kmh WSW 34.0 mph54.7 kmh 29.20 in988.8 mb 0.00 in0.0 mm 0.00 in/hr0.0 mm/hr 0.00 in0.0 mm
04:09 AM 40.3°F4.6°C 33.3°F0.7°C 76% 17.0 mph WSW27.4 kmh WSW 34.0 mph54.7 kmh 29.20 in988.8 mb 0.00 in0.0 mm 0.00 in/hr0.0 mm/hr 0.00 in0.0 mm
04:08 AM 40.3°F4.6°C 33.3°F0.7°C 76% 17.0 mph WSW27.4 kmh WSW 34.0 mph54.7 kmh 29.20 in988.8 mb 0.00 in0.0 mm 0.00 in/hr0.0 mm/hr 0.00 in0.0 mm
04:07 AM 40.3°F4.6°C 33.6°F0.9°C 77% 17.0 mph WSW27.4 kmh WSW 34.0 mph54.7 kmh 29.20 in988.8 mb 0.00 in0.0 mm 0.00 in/hr0.0 mm/hr 0.00 in0.0 mm
04:06 AM 40.3°F4.6°C 33.6°F0.9°C 77% 17.0 mph WSW27.4 kmh WSW 34.0 mph54.7 kmh 29.21 in989.2 mb 0.00 in0.0 mm 0.00 in/hr0.0 mm/hr 0.00 in0.0 mm
04:05 AM 40.3°F4.6°C 33.6°F0.9°C 77% 17.0 mph WSW27.4 kmh WSW 28.0 mph45.1 kmh 29.20 in988.8 mb 0.00 in0.0 mm 0.00 in/hr0.0 mm/hr 0.00 in0.0 mm
04:04 AM 40.5°F4.7°C 33.8°F1.0°C 77% 17.0 mph WSW27.4 kmh WSW 33.0 mph53.1 kmh 29.21 in989.2 mb 0.00 in0.0 mm 0.00 in/hr0.0 mm/hr 0.00 in0.0 mm
04:03 AM 40.5°F4.7°C 33.8°F1.0°C 77% 17.0 mph WSW27.4 kmh WSW 33.0 mph53.1 kmh 29.21 in989.2 mb 0.00 in0.0 mm 0.00 in/hr0.0 mm/hr 0.00 in0.0 mm
04:02 AM 40.5°F4.7°C 33.8°F1.0°C 77% 17.0 mph WSW27.4 kmh WSW 33.0 mph53.1 kmh 29.21 in989.2 mb 0.00 in0.0 mm 0.00 in/hr0.0 mm/hr 0.00 in0.0 mm
04:01 AM 40.5°F4.7°C 33.8°F1.0°C 77% 18.0 mph WSW29.0 kmh WSW 33.0 mph53.1 kmh 29.21 in989.2 mb 0.00 in0.0 mm 0.00 in/hr0.0 mm/hr 0.00 in0.0 mm
04:00 AM 40.5°F4.7°C 33.8°F1.0°C 77% 18.0 mph WSW29.0 kmh WSW 33.0 mph53.1 kmh 29.21 in989.2 mb 0.00 in0.0 mm 0.00 in/hr0.0 mm/hr 0.00 in0.0 mm
03:59 AM 40.5°F4.7°C 33.8°F1.0°C 77% 18.0 mph WSW29.0 kmh WSW 33.0 mph53.1 kmh 29.21 in989.2 mb 0.00 in0.0 mm 0.00 in/hr0.0 mm/hr 0.00 in0.0 mm
03:58 AM 40.5°F4.7°C 33.8°F1.0°C 77% 18.0 mph WSW29.0 kmh WSW 33.0 mph53.1 kmh 29.21 in989.2 mb 0.00 in0.0 mm 0.00 in/hr0.0 mm/hr 0.00 in0.0 mm
03:57 AM 40.5°F4.7°C 33.8°F1.0°C 77% 19.0 mph WSW30.6 kmh WSW 33.0 mph53.1 kmh 29.21 in989.2 mb 0.00 in0.0 mm 0.00 in/hr0.0 mm/hr 0.00 in0.0 mm
03:56 AM 40.5°F4.7°C 33.8°F1.0°C 77% 19.0 mph WSW30.6 kmh WSW 33.0 mph53.1 kmh 29.21 in989.2 mb 0.00 in0.0 mm 0.00 in/hr0.0 mm/hr 0.00 in0.0 mm
03:55 AM 40.5°F4.7°C 33.8°F1.0°C 77% 18.0 mph WSW29.0 kmh WSW 33.0 mph53.1 kmh 29.21 in989.2 mb 0.00 in0.0 mm 0.00 in/hr0.0 mm/hr 0.00 in0.0 mm
03:54 AM 40.5°F4.7°C 33.8°F1.0°C 77% 17.0 mph WSW27.4 kmh WSW 31.0 mph49.9 kmh 29.21 in989.2 mb 0.00 in0.0 mm 0.00 in/hr0.0 mm/hr 0.00 in0.0 mm
03:53 AM 40.5°F4.7°C 33.8°F1.0°C 77% 17.0 mph WSW27.4 kmh WSW 30.0 mph48.3 kmh 29.21 in989.2 mb 0.00 in0.0 mm 0.00 in/hr0.0 mm/hr 0.00 in0.0 mm
03:52 AM 40.5°F4.7°C 33.8°F1.0°C 77% 16.0 mph WSW25.7 kmh WSW 30.0 mph48.3 kmh 29.21 in989.2 mb 0.00 in0.0 mm 0.00 in/hr0.0 mm/hr 0.00 in0.0 mm
03:51 AM 40.5°F4.7°C 34.2°F1.2°C 78% 16.0 mph WSW25.7 kmh WSW 30.0 mph48.3 kmh 29.21 in989.2 mb 0.00 in0.0 mm 0.00 in/hr0.0 mm/hr 0.00 in0.0 mm
03:50 AM 40.5°F4.7°C 34.2°F1.2°C 78% 16.0 mph WSW25.7 kmh WSW 30.0 mph48.3 kmh 29.21 in989.2 mb 0.00 in0.0 mm 0.00 in/hr0.0 mm/hr 0.00 in0.0 mm
03:49 AM 40.5°F4.7°C 34.2°F1.2°C 78% 16.0 mph WSW25.7 kmh WSW 30.0 mph48.3 kmh 29.21 in989.2 mb 0.00 in0.0 mm 0.00 in/hr0.0 mm/hr 0.00 in0.0 mm
03:48 AM 40.5°F4.7°C 34.2°F1.2°C 78% 16.0 mph WSW25.7 kmh WSW 30.0 mph48.3 kmh 29.22 in989.5 mb 0.00 in0.0 mm 0.00 in/hr0.0 mm/hr 0.00 in0.0 mm
03:47 AM 40.5°F4.7°C 34.2°F1.2°C 78% 16.0 mph WSW25.7 kmh WSW 30.0 mph48.3 kmh 29.22 in989.5 mb 0.00 in0.0 mm 0.00 in/hr0.0 mm/hr 0.00 in0.0 mm
03:46 AM 40.5°F4.7°C 34.2°F1.2°C 78% 15.0 mph WSW24.1 kmh WSW 30.0 mph48.3 kmh 29.22 in989.5 mb 0.00 in0.0 mm 0.00 in/hr0.0 mm/hr 0.00 in0.0 mm
03:45 AM 40.5°F4.7°C 34.2°F1.2°C 78% 15.0 mph WSW24.1 kmh WSW 27.0 mph43.5 kmh 29.22 in989.5 mb 0.00 in0.0 mm 0.00 in/hr0.0 mm/hr 0.00 in0.0 mm
03:44 AM 40.5°F4.7°C 34.2°F1.2°C 78% 15.0 mph WSW24.1 kmh WSW 27.0 mph43.5 kmh 29.21 in989.2 mb 0.00 in0.0 mm 0.00 in/hr0.0 mm/hr 0.00 in0.0 mm
03:43 AM 40.5°F4.7°C 34.2°F1.2°C 78% 15.0 mph WSW24.1 kmh WSW 27.0 mph43.5 kmh 29.22 in989.5 mb 0.00 in0.0 mm 0.00 in/hr0.0 mm/hr 0.00 in0.0 mm
03:42 AM 40.5°F4.7°C 34.2°F1.2°C 78% 15.0 mph WSW24.1 kmh WSW 27.0 mph43.5 kmh 29.22 in989.5 mb 0.00 in0.0 mm 0.00 in/hr0.0 mm/hr 0.00 in0.0 mm
03:41 AM 40.5°F4.7°C 34.2°F1.2°C 78% 15.0 mph WSW24.1 kmh WSW 27.0 mph43.5 kmh 29.22 in989.5 mb 0.00 in0.0 mm 0.00 in/hr0.0 mm/hr 0.00 in0.0 mm
03:40 AM 40.3°F4.6°C 34.0°F1.1°C 78% 14.0 mph WSW22.5 kmh WSW 27.0 mph43.5 kmh 29.22 in989.5 mb 0.00 in0.0 mm 0.00 in/hr0.0 mm/hr 0.00 in0.0 mm
03:39 AM 40.3°F4.6°C 34.0°F1.1°C 78% 13.0 mph WSW20.9 kmh WSW 27.0 mph43.5 kmh 29.22 in989.5 mb 0.00 in0.0 mm 0.00 in/hr0.0 mm/hr 0.00 in0.0 mm
03:38 AM 40.5°F4.7°C 34.2°F1.2°C 78% 13.0 mph WSW20.9 kmh WSW 27.0 mph43.5 kmh 29.22 in989.5 mb 0.00 in0.0 mm 0.00 in/hr0.0 mm/hr 0.00 in0.0 mm
03:37 AM 40.5°F4.7°C 34.2°F1.2°C 78% 13.0 mph WSW20.9 kmh WSW 24.0 mph38.6 kmh 29.22 in989.5 mb 0.00 in0.0 mm 0.00 in/hr0.0 mm/hr 0.00 in0.0 mm
03:36 AM 40.5°F4.7°C 34.3°F1.3°C 79% 12.0 mph WSW19.3 kmh WSW 24.0 mph38.6 kmh 29.22 in989.5 mb 0.00 in0.0 mm 0.00 in/hr0.0 mm/hr 0.00 in0.0 mm
03:35 AM 40.5°F4.7°C 34.3°F1.3°C 79% 13.0 mph WSW20.9 kmh WSW 22.0 mph35.4 kmh 29.22 in989.5 mb 0.00 in0.0 mm 0.00 in/hr0.0 mm/hr 0.00 in0.0 mm
03:34 AM 40.5°F4.7°C 34.3°F1.3°C 79% 12.0 mph WSW19.3 kmh WSW 22.0 mph35.4 kmh 29.22 in989.5 mb 0.00 in0.0 mm 0.00 in/hr0.0 mm/hr 0.00 in0.0 mm
03:33 AM 40.5°F4.7°C 34.2°F1.2°C 78% 12.0 mph WSW19.3 kmh WSW 22.0 mph35.4 kmh 29.22 in989.5 mb 0.00 in0.0 mm 0.00 in/hr0.0 mm/hr 0.00 in0.0 mm
03:32 AM 40.5°F4.7°C 34.2°F1.2°C 78% 12.0 mph WSW19.3 kmh WSW 22.0 mph35.4 kmh 29.22 in989.5 mb 0.00 in0.0 mm 0.00 in/hr0.0 mm/hr 0.00 in0.0 mm
03:31 AM 40.5°F4.7°C 34.2°F1.2°C 78% 12.0 mph WSW19.3 kmh WSW 24.0 mph38.6 kmh 29.23 in989.8 mb 0.00 in0.0 mm 0.00 in/hr0.0 mm/hr 0.00 in0.0 mm
03:30 AM 40.5°F4.7°C 34.2°F1.2°C 78% 13.0 mph WSW20.9 kmh WSW 24.0 mph38.6 kmh 29.22 in989.5 mb 0.00 in0.0 mm 0.00 in/hr0.0 mm/hr 0.00 in0.0 mm
03:29 AM 40.5°F4.7°C 34.2°F1.2°C 78% 13.0 mph WSW20.9 kmh WSW 27.0 mph43.5 kmh 29.23 in989.8 mb 0.00 in0.0 mm 0.00 in/hr0.0 mm/hr 0.00 in0.0 mm
03:28 AM 40.5°F4.7°C 33.8°F1.0°C 77% 13.0 mph WSW20.9 kmh WSW 27.0 mph43.5 kmh 29.23 in989.8 mb 0.00 in0.0 mm 0.00 in/hr0.0 mm/hr 0.00 in0.0 mm
03:27 AM 40.5°F4.7°C 33.8°F1.0°C 77% 14.0 mph WSW22.5 kmh WSW 27.0 mph43.5 kmh 29.23 in989.8 mb 0.00 in0.0 mm 0.00 in/hr0.0 mm/hr 0.00 in0.0 mm
03:26 AM 40.5°F4.7°C 33.8°F1.0°C 77% 14.0 mph WSW22.5 kmh WSW 27.0 mph43.5 kmh 29.23 in989.8 mb 0.00 in0.0 mm 0.00 in/hr0.0 mm/hr 0.00 in0.0 mm
03:25 AM 40.3°F4.6°C 33.6°F0.9°C 77% 14.0 mph WSW22.5 kmh WSW 27.0 mph43.5 kmh 29.23 in989.8 mb 0.00 in0.0 mm 0.00 in/hr0.0 mm/hr 0.00 in0.0 mm
03:24 AM 40.5°F4.7°C 33.8°F1.0°C 77% 14.0 mph WSW22.5 kmh WSW 27.0 mph43.5 kmh 29.23 in989.8 mb 0.00 in0.0 mm 0.00 in/hr0.0 mm/hr 0.00 in0.0 mm
03:23 AM 40.3°F4.6°C 33.6°F0.9°C 77% 13.0 mph WSW20.9 kmh WSW 27.0 mph43.5 kmh 29.23 in989.8 mb 0.00 in0.0 mm 0.00 in/hr0.0 mm/hr 0.00 in0.0 mm
03:22 AM 40.5°F4.7°C 33.8°F1.0°C 77% 13.0 mph WSW20.9 kmh WSW 27.0 mph43.5 kmh 29.23 in989.8 mb 0.00 in0.0 mm 0.00 in/hr0.0 mm/hr 0.00 in0.0 mm
03:21 AM 40.5°F4.7°C 33.8°F1.0°C 77% 13.0 mph WSW20.9 kmh WSW 27.0 mph43.5 kmh 29.23 in989.8 mb 0.00 in0.0 mm 0.00 in/hr0.0 mm/hr 0.00 in0.0 mm
03:20 AM 40.3°F4.6°C 33.6°F0.9°C 77% 13.0 mph WSW20.9 kmh WSW 27.0 mph43.5 kmh 29.23 in989.8 mb 0.00 in0.0 mm 0.00 in/hr0.0 mm/hr 0.00 in0.0 mm
03:19 AM 40.5°F4.7°C 33.8°F1.0°C 77% 13.0 mph WSW20.9 kmh WSW 24.0 mph38.6 kmh 29.23 in989.8 mb 0.00 in0.0 mm 0.00 in/hr0.0 mm/hr 0.00 in0.0 mm
03:18 AM 40.5°F4.7°C 33.8°F1.0°C 77% 13.0 mph WSW20.9 kmh WSW 30.0 mph48.3 kmh 29.23 in989.8 mb 0.00 in0.0 mm 0.00 in/hr0.0 mm/hr 0.00 in0.0 mm
03:17 AM 40.5°F4.7°C 33.4°F0.8°C 76% 13.0 mph WSW20.9 kmh WSW 30.0 mph48.3 kmh 29.23 in989.8 mb 0.00 in0.0 mm 0.00 in/hr0.0 mm/hr 0.00 in0.0 mm
03:16 AM 40.5°F4.7°C 33.4°F0.8°C 76% 13.0 mph WSW20.9 kmh WSW 30.0 mph48.3 kmh 29.23 in989.8 mb 0.00 in0.0 mm 0.00 in/hr0.0 mm/hr 0.00 in0.0 mm
03:15 AM 40.5°F4.7°C 33.4°F0.8°C 76% 13.0 mph WSW20.9 kmh WSW 30.0 mph48.3 kmh 29.23 in989.8 mb 0.00 in0.0 mm 0.00 in/hr0.0 mm/hr 0.00 in0.0 mm
03:14 AM 40.5°F4.7°C 33.4°F0.8°C 76% 14.0 mph WSW22.5 kmh WSW 30.0 mph48.3 kmh 29.24 in990.2 mb 0.00 in0.0 mm 0.00 in/hr0.0 mm/hr 0.00 in0.0 mm
03:13 AM 40.5°F4.7°C 33.4°F0.8°C 76% 15.0 mph WSW24.1 kmh WSW 30.0 mph48.3 kmh 29.24 in990.2 mb 0.00 in0.0 mm 0.00 in/hr0.0 mm/hr 0.00 in0.0 mm
03:12 AM 40.5°F4.7°C 33.4°F0.8°C 76% 15.0 mph WSW24.1 kmh WSW 30.0 mph48.3 kmh 29.24 in990.2 mb 0.00 in0.0 mm 0.00 in/hr0.0 mm/hr 0.00 in0.0 mm
03:11 AM 40.5°F4.7°C 33.4°F0.8°C 76% 15.0 mph WSW24.1 kmh WSW 30.0 mph48.3 kmh 29.24 in990.2 mb 0.00 in0.0 mm 0.00 in/hr0.0 mm/hr 0.00 in0.0 mm
03:10 AM 40.5°F4.7°C 33.4°F0.8°C 76% 15.0 mph WSW24.1 kmh WSW 30.0 mph48.3 kmh 29.24 in990.2 mb 0.00 in0.0 mm 0.00 in/hr0.0 mm/hr 0.00 in0.0 mm
03:09 AM 40.6°F4.8°C 33.6°F0.9°C 76% 15.0 mph WSW24.1 kmh WSW 30.0 mph48.3 kmh 29.24 in990.2 mb 0.00 in0.0 mm 0.00 in/hr0.0 mm/hr 0.00 in0.0 mm
03:08 AM 40.6°F4.8°C 33.6°F0.9°C 76% 15.0 mph WSW24.1 kmh WSW 27.0 mph43.5 kmh 29.24 in990.2 mb 0.00 in0.0 mm 0.00 in/hr0.0 mm/hr 0.00 in0.0 mm
03:07 AM 40.6°F4.8°C 33.6°F0.9°C 76% 15.0 mph WSW24.1 kmh WSW 27.0 mph43.5 kmh 29.24 in990.2 mb 0.00 in0.0 mm 0.00 in/hr0.0 mm/hr 0.00 in0.0 mm
03:06 AM 40.5°F4.7°C 33.4°F0.8°C 76% 16.0 mph WSW25.7 kmh WSW 27.0 mph43.5 kmh 29.24 in990.2 mb 0.00 in0.0 mm 0.00 in/hr0.0 mm/hr 0.00 in0.0 mm
03:05 AM 40.5°F4.7°C 33.4°F0.8°C 76% 16.0 mph WSW25.7 kmh WSW 27.0 mph43.5 kmh 29.24 in990.2 mb 0.00 in0.0 mm 0.00 in/hr0.0 mm/hr 0.00 in0.0 mm
03:04 AM 40.5°F4.7°C 33.4°F0.8°C 76% 15.0 mph WSW24.1 kmh WSW 27.0 mph43.5 kmh 29.24 in990.2 mb 0.00 in0.0 mm 0.00 in/hr0.0 mm/hr 0.00 in0.0 mm
03:03 AM 40.5°F4.7°C 33.4°F0.8°C 76% 14.0 mph WSW22.5 kmh WSW 26.0 mph41.8 kmh 29.25 in990.5 mb 0.00 in0.0 mm 0.00 in/hr0.0 mm/hr 0.00 in0.0 mm
03:02 AM 40.5°F4.7°C 33.4°F0.8°C 76% 14.0 mph WSW22.5 kmh WSW 26.0 mph41.8 kmh 29.25 in990.5 mb 0.00 in0.0 mm 0.00 in/hr0.0 mm/hr 0.00 in0.0 mm
03:01 AM 40.5°F4.7°C 33.4°F0.8°C 76% 14.0 mph WSW22.5 kmh WSW 26.0 mph41.8 kmh 29.24 in990.2 mb 0.00 in0.0 mm 0.00 in/hr0.0 mm/hr 0.00 in0.0 mm
03:00 AM 40.5°F4.7°C 33.4°F0.8°C 76% 14.0 mph WSW22.5 kmh WSW 26.0 mph41.8 kmh 29.25 in990.5 mb 0.00 in0.0 mm 0.00 in/hr0.0 mm/hr 0.00 in0.0 mm
02:59 AM 40.5°F4.7°C 33.4°F0.8°C 76% 14.0 mph WSW22.5 kmh WSW 26.0 mph41.8 kmh 29.25 in990.5 mb 0.00 in0.0 mm 0.00 in/hr0.0 mm/hr 0.00 in0.0 mm
02:58 AM 40.5°F4.7°C 33.4°F0.8°C 76% 14.0 mph WSW22.5 kmh WSW 26.0 mph41.8 kmh 29.25 in990.5 mb 0.00 in0.0 mm 0.00 in/hr0.0 mm/hr 0.00 in0.0 mm
02:57 AM 40.5°F4.7°C 33.4°F0.8°C 76% 14.0 mph WSW22.5 kmh WSW 26.0 mph41.8 kmh 29.25 in990.5 mb 0.00 in0.0 mm 0.00 in/hr0.0 mm/hr 0.00 in0.0 mm
02:56 AM 40.5°F4.7°C 33.4°F0.8°C 76% 14.0 mph WSW22.5 kmh WSW 26.0 mph41.8 kmh 29.25 in990.5 mb 0.00 in0.0 mm 0.00 in/hr0.0 mm/hr 0.00 in0.0 mm
02:55 AM 40.5°F4.7°C 33.4°F0.8°C 76% 14.0 mph WSW22.5 kmh WSW 26.0 mph41.8 kmh 29.25 in990.5 mb 0.00 in0.0 mm 0.00 in/hr0.0 mm/hr 0.00 in0.0 mm
02:54 AM 40.5°F4.7°C 33.4°F0.8°C 76% 15.0 mph WSW24.1 kmh WSW 27.0 mph43.5 kmh 29.25 in990.5 mb 0.00 in0.0 mm 0.00 in/hr0.0 mm/hr 0.00 in0.0 mm
02:53 AM 40.5°F4.7°C 33.4°F0.8°C 76% 16.0 mph WSW25.7 kmh WSW 27.0 mph43.5 kmh 29.25 in990.5 mb 0.00 in0.0 mm 0.00 in/hr0.0 mm/hr 0.00 in0.0 mm
02:52 AM 40.5°F4.7°C 33.3°F0.7°C 75% 16.0 mph WSW25.7 kmh WSW 27.0 mph43.5 kmh 29.25 in990.5 mb 0.00 in0.0 mm 0.00 in/hr0.0 mm/hr 0.00 in0.0 mm
02:51 AM 40.5°F4.7°C 33.3°F0.7°C 75% 16.0 mph WSW25.7 kmh WSW 27.0 mph43.5 kmh 29.25 in990.5 mb 0.00 in0.0 mm 0.00 in/hr0.0 mm/hr 0.00 in0.0 mm
02:50 AM 40.5°F4.7°C 33.1°F0.6°C 75% 16.0 mph WSW25.7 kmh WSW 27.0 mph43.5 kmh 29.25 in990.5 mb 0.00 in0.0 mm 0.00 in/hr0.0 mm/hr 0.00 in0.0 mm
02:49 AM 40.5°F4.7°C 33.1°F0.6°C 75% 16.0 mph WSW25.7 kmh WSW 28.0 mph45.1 kmh 29.25 in990.5 mb 0.00 in0.0 mm 0.00 in/hr0.0 mm/hr 0.00 in0.0 mm
02:48 AM 40.5°F4.7°C 33.1°F0.6°C 75% 16.0 mph WSW25.7 kmh WSW 28.0 mph45.1 kmh 29.25 in990.5 mb 0.00 in0.0 mm 0.00 in/hr0.0 mm/hr 0.00 in0.0 mm
02:47 AM 40.5°F4.7°C 33.1°F0.6°C 75% 16.0 mph WSW25.7 kmh WSW 28.0 mph45.1 kmh 29.25 in990.5 mb 0.00 in0.0 mm 0.00 in/hr0.0 mm/hr 0.00 in0.0 mm
02:46 AM 40.5°F4.7°C 33.1°F0.6°C 75% 16.0 mph WSW25.7 kmh WSW 28.0 mph45.1 kmh 29.26 in990.9 mb 0.00 in0.0 mm 0.00 in/hr0.0 mm/hr 0.00 in0.0 mm
02:45 AM 40.5°F4.7°C 33.1°F0.6°C 75% 15.0 mph WSW24.1 kmh WSW 28.0 mph45.1 kmh 29.25 in990.5 mb 0.00 in0.0 mm 0.00 in/hr0.0 mm/hr 0.00 in0.0 mm
02:44 AM 40.5°F4.7°C 33.1°F0.6°C 75% 16.0 mph WSW25.7 kmh WSW 28.0 mph45.1 kmh 29.26 in990.9 mb 0.00 in0.0 mm 0.00 in/hr0.0 mm/hr 0.00 in0.0 mm
02:43 AM 40.5°F4.7°C 33.1°F0.6°C 75% 16.0 mph WSW25.7 kmh WSW 28.0 mph45.1 kmh 29.26 in990.9 mb 0.00 in0.0 mm 0.00 in/hr0.0 mm/hr 0.00 in0.0 mm
02:42 AM 40.5°F4.7°C 33.4°F0.8°C 76% 16.0 mph WSW25.7 kmh WSW 28.0 mph45.1 kmh 29.26 in990.9 mb 0.00 in0.0 mm 0.00 in/hr0.0 mm/hr 0.00 in0.0 mm
02:41 AM 40.5°F4.7°C 33.4°F0.8°C 76% 15.0 mph WSW24.1 kmh WSW 28.0 mph45.1 kmh 29.26 in990.9 mb 0.00 in0.0 mm 0.00 in/hr0.0 mm/hr 0.00 in0.0 mm
02:40 AM 40.5°F4.7°C 33.4°F0.8°C 76% 15.0 mph WSW24.1 kmh WSW 28.0 mph45.1 kmh 29.26 in990.9 mb 0.00 in0.0 mm 0.00 in/hr0.0 mm/hr 0.00 in0.0 mm
02:39 AM 40.5°F4.7°C 33.4°F0.8°C 76% 14.0 mph WSW22.5 kmh WSW 28.0 mph45.1 kmh 29.26 in990.9 mb 0.00 in0.0 mm 0.00 in/hr0.0 mm/hr 0.00 in0.0 mm
02:38 AM 40.5°F4.7°C 33.4°F0.8°C 76% 15.0 mph WSW24.1 kmh WSW 25.0 mph40.2 kmh 29.26 in990.9 mb 0.00 in0.0 mm 0.00 in/hr0.0 mm/hr 0.00 in0.0 mm
02:37 AM 40.5°F4.7°C 33.4°F0.8°C 76% 15.0 mph WSW24.1 kmh WSW 28.0 mph45.1 kmh 29.26 in990.9 mb 0.00 in0.0 mm 0.00 in/hr0.0 mm/hr 0.00 in0.0 mm
02:36 AM 40.5°F4.7°C 33.4°F0.8°C 76% 16.0 mph WSW25.7 kmh WSW 28.0 mph45.1 kmh 29.26 in990.9 mb 0.00 in0.0 mm 0.00 in/hr0.0 mm/hr 0.00 in0.0 mm
02:35 AM 40.5°F4.7°C 33.4°F0.8°C 76% 16.0 mph WSW25.7 kmh WSW 30.0 mph48.3 kmh 29.26 in990.9 mb 0.00 in0.0 mm 0.00 in/hr0.0 mm/hr 0.00 in0.0 mm
02:34 AM 40.5°F4.7°C 33.1°F0.6°C 75% 15.0 mph WSW24.1 kmh WSW 30.0 mph48.3 kmh 29.26 in990.9 mb 0.00 in0.0 mm 0.00 in/hr0.0 mm/hr 0.00 in0.0 mm
02:33 AM 40.5°F4.7°C 33.1°F0.6°C 75% 14.0 mph WSW22.5 kmh WSW 30.0 mph48.3 kmh 29.26 in990.9 mb 0.00 in0.0 mm 0.00 in/hr0.0 mm/hr 0.00 in0.0 mm
02:32 AM 40.5°F4.7°C 33.1°F0.6°C 75% 14.0 mph WSW22.5 kmh WSW 30.0 mph48.3 kmh 29.26 in990.9 mb 0.00 in0.0 mm 0.00 in/hr0.0 mm/hr 0.00 in0.0 mm
02:31 AM 40.5°F4.7°C 33.1°F0.6°C 75% 14.0 mph WSW22.5 kmh WSW 30.0 mph48.3 kmh 29.26 in990.9 mb 0.00 in0.0 mm 0.00 in/hr0.0 mm/hr 0.00 in0.0 mm
02:30 AM 40.5°F4.7°C 33.1°F0.6°C 75% 14.0 mph WSW22.5 kmh WSW 30.0 mph48.3 kmh 29.26 in990.9 mb 0.00 in0.0 mm 0.00 in/hr0.0 mm/hr 0.00 in0.0 mm
02:29 AM 40.5°F4.7°C 33.1°F0.6°C 75% 14.0 mph WSW22.5 kmh WSW 30.0 mph48.3 kmh 29.26 in990.9 mb 0.00 in0.0 mm 0.00 in/hr0.0 mm/hr 0.00 in0.0 mm
02:28 AM 40.5°F4.7°C 33.1°F0.6°C 75% 14.0 mph WSW22.5 kmh WSW 30.0 mph48.3 kmh 29.26 in990.9 mb 0.00 in0.0 mm 0.00 in/hr0.0 mm/hr 0.00 in0.0 mm
02:27 AM 40.5°F4.7°C 33.1°F0.6°C 75% 13.0 mph WSW20.9 kmh WSW 30.0 mph48.3 kmh 29.26 in990.9 mb 0.00 in0.0 mm 0.00 in/hr0.0 mm/hr 0.00 in0.0 mm
02:26 AM 40.5°F4.7°C 33.1°F0.6°C 75% 13.0 mph WSW20.9 kmh WSW 30.0 mph48.3 kmh 29.27 in991.2 mb 0.00 in0.0 mm 0.00 in/hr0.0 mm/hr 0.00 in0.0 mm
02:25 AM 40.5°F4.7°C 33.1°F0.6°C 75% 13.0 mph WSW20.9 kmh WSW 23.0 mph37.0 kmh 29.26 in990.9 mb 0.00 in0.0 mm 0.00 in/hr0.0 mm/hr 0.00 in0.0 mm
02:24 AM 40.5°F4.7°C 33.1°F0.6°C 75% 14.0 mph WSW22.5 kmh WSW 23.0 mph37.0 kmh 29.26 in990.9 mb 0.00 in0.0 mm 0.00 in/hr0.0 mm/hr 0.00 in0.0 mm
02:23 AM 40.5°F4.7°C 33.1°F0.6°C 75% 15.0 mph WSW24.1 kmh WSW 26.0 mph41.8 kmh 29.26 in990.9 mb 0.00 in0.0 mm 0.00 in/hr0.0 mm/hr 0.00 in0.0 mm
02:22 AM 40.5°F4.7°C 33.1°F0.6°C 75% 15.0 mph WSW24.1 kmh WSW 26.0 mph41.8 kmh 29.26 in990.9 mb 0.00 in0.0 mm 0.00 in/hr0.0 mm/hr 0.00 in0.0 mm
02:21 AM 40.5°F4.7°C 33.1°F0.6°C 75% 15.0 mph WSW24.1 kmh WSW 28.0 mph45.1 kmh 29.26 in990.9 mb 0.00 in0.0 mm 0.00 in/hr0.0 mm/hr 0.00 in0.0 mm
02:20 AM 40.5°F4.7°C 33.1°F0.6°C 75% 15.0 mph WSW24.1 kmh WSW 28.0 mph45.1 kmh 29.27 in991.2 mb 0.00 in0.0 mm 0.00 in/hr0.0 mm/hr 0.00 in0.0 mm
02:19 AM 40.5°F4.7°C 33.1°F0.6°C 75% 16.0 mph WSW25.7 kmh WSW 28.0 mph45.1 kmh 29.26 in990.9 mb 0.00 in0.0 mm 0.00 in/hr0.0 mm/hr 0.00 in0.0 mm
02:18 AM 40.5°F4.7°C 33.1°F0.6°C 75% 16.0 mph WSW25.7 kmh WSW 28.0 mph45.1 kmh 29.27 in991.2 mb 0.00 in0.0 mm 0.00 in/hr0.0 mm/hr 0.00 in0.0 mm
02:17 AM 40.5°F4.7°C 32.7°F0.4°C 74% 16.0 mph WSW25.7 kmh WSW 28.0 mph45.1 kmh 29.27 in991.2 mb 0.00 in0.0 mm 0.00 in/hr0.0 mm/hr 0.00 in0.0 mm
02:16 AM 40.5°F4.7°C 32.7°F0.4°C 74% 16.0 mph WSW25.7 kmh WSW 28.0 mph45.1 kmh 29.27 in991.2 mb 0.00 in0.0 mm 0.00 in/hr0.0 mm/hr 0.00 in0.0 mm
02:15 AM 40.5°F4.7°C 32.7°F0.4°C 74% 17.0 mph WSW27.4 kmh WSW 29.0 mph46.7 kmh 29.27 in991.2 mb 0.00 in0.0 mm 0.00 in/hr0.0 mm/hr 0.00 in0.0 mm
02:14 AM 40.3°F4.6°C 32.7°F0.4°C 74% 16.0 mph WSW25.7 kmh WSW 29.0 mph46.7 kmh 29.27 in991.2 mb 0.00 in0.0 mm 0.00 in/hr0.0 mm/hr 0.00 in0.0 mm
02:13 AM 40.3°F4.6°C 32.7°F0.4°C 74% 16.0 mph WSW25.7 kmh WSW 29.0 mph46.7 kmh 29.27 in991.2 mb 0.00 in0.0 mm 0.00 in/hr0.0 mm/hr 0.00 in0.0 mm
02:12 AM 40.5°F4.7°C 32.7°F0.4°C 74% 15.0 mph WSW24.1 kmh WSW 29.0 mph46.7 kmh 29.27 in991.2 mb 0.00 in0.0 mm 0.00 in/hr0.0 mm/hr 0.00 in0.0 mm
02:11 AM 40.3°F4.6°C 32.7°F0.4°C 74% 15.0 mph WSW24.1 kmh WSW 29.0 mph46.7 kmh 29.27 in991.2 mb 0.00 in0.0 mm 0.00 in/hr0.0 mm/hr 0.00 in0.0 mm
02:10 AM 40.5°F4.7°C 32.7°F0.4°C 74% 15.0 mph WSW24.1 kmh WSW 29.0 mph46.7 kmh 29.27 in991.2 mb 0.00 in0.0 mm 0.00 in/hr0.0 mm/hr 0.00 in0.0 mm
02:09 AM 40.5°F4.7°C 32.7°F0.4°C 74% 15.0 mph WSW24.1 kmh WSW 29.0 mph46.7 kmh 29.27 in991.2 mb 0.00 in0.0 mm 0.00 in/hr0.0 mm/hr 0.00 in0.0 mm
02:08 AM 40.5°F4.7°C 32.7°F0.4°C 74% 15.0 mph WSW24.1 kmh WSW 29.0 mph46.7 kmh 29.27 in991.2 mb 0.00 in0.0 mm 0.00 in/hr0.0 mm/hr 0.00 in0.0 mm
02:07 AM 40.3°F4.6°C 32.7°F0.4°C 74% 15.0 mph WSW24.1 kmh WSW 29.0 mph46.7 kmh 29.27 in991.2 mb 0.00 in0.0 mm 0.00 in/hr0.0 mm/hr 0.00 in0.0 mm
02:06 AM 40.5°F4.7°C 33.1°F0.6°C 75% 14.0 mph WSW22.5 kmh WSW 29.0 mph46.7 kmh 29.27 in991.2 mb 0.00 in0.0 mm 0.00 in/hr0.0 mm/hr 0.00 in0.0 mm
02:05 AM 40.5°F4.7°C 33.1°F0.6°C 75% 13.0 mph WSW20.9 kmh WSW 27.0 mph43.5 kmh 29.27 in991.2 mb 0.00 in0.0 mm 0.00 in/hr0.0 mm/hr 0.00 in0.0 mm
02:04 AM 40.5°F4.7°C 33.1°F0.6°C 75% 13.0 mph WSW20.9 kmh WSW 25.0 mph40.2 kmh 29.27 in991.2 mb 0.00 in0.0 mm 0.00 in/hr0.0 mm/hr 0.00 in0.0 mm
02:03 AM 40.5°F4.7°C 33.1°F0.6°C 75% 14.0 mph WSW22.5 kmh WSW 26.0 mph41.8 kmh 29.27 in991.2 mb 0.00 in0.0 mm 0.00 in/hr0.0 mm/hr 0.00 in0.0 mm
02:02 AM 40.5°F4.7°C 33.1°F0.6°C 75% 14.0 mph WSW22.5 kmh WSW 28.0 mph45.1 kmh 29.27 in991.2 mb 0.00 in0.0 mm 0.00 in/hr0.0 mm/hr 0.00 in0.0 mm
02:01 AM 40.5°F4.7°C 32.7°F0.4°C 74% 14.0 mph WSW22.5 kmh WSW 28.0 mph45.1 kmh 29.27 in991.2 mb 0.00 in0.0 mm 0.00 in/hr0.0 mm/hr 0.00 in0.0 mm
02:00 AM 40.5°F4.7°C 32.7°F0.4°C 74% 14.0 mph WSW22.5 kmh WSW 28.0 mph45.1 kmh 29.27 in991.2 mb 0.00 in0.0 mm 0.00 in/hr0.0 mm/hr 0.00 in0.0 mm
01:59 AM 40.5°F4.7°C 33.1°F0.6°C 75% 14.0 mph WSW22.5 kmh WSW 28.0 mph45.1 kmh 29.27 in991.2 mb 0.00 in0.0 mm 0.00 in/hr0.0 mm/hr 0.00 in0.0 mm
01:58 AM 40.5°F4.7°C 32.7°F0.4°C 74% 14.0 mph WSW22.5 kmh WSW 28.0 mph45.1 kmh 29.27 in991.2 mb 0.00 in0.0 mm 0.00 in/hr0.0 mm/hr 0.00 in0.0 mm
01:57 AM 40.5°F4.7°C 32.7°F0.4°C 74% 14.0 mph WSW22.5 kmh WSW 28.0 mph45.1 kmh 29.28 in991.5 mb 0.00 in0.0 mm 0.00 in/hr0.0 mm/hr 0.00 in0.0 mm
01:56 AM 40.5°F4.7°C 32.7°F0.4°C 74% 15.0 mph WSW24.1 kmh WSW 28.0 mph45.1 kmh 29.28 in991.5 mb 0.00 in0.0 mm 0.00 in/hr0.0 mm/hr 0.00 in0.0 mm
01:55 AM 40.5°F4.7°C 32.7°F0.4°C 74% 15.0 mph WSW24.1 kmh WSW 28.0 mph45.1 kmh 29.27 in991.2 mb 0.00 in0.0 mm 0.00 in/hr0.0 mm/hr 0.00 in0.0 mm
01:54 AM 40.5°F4.7°C 32.9°F0.5°C 74% 15.0 mph WSW24.1 kmh WSW 28.0 mph45.1 kmh 29.28 in991.5 mb 0.00 in0.0 mm 0.00 in/hr0.0 mm/hr 0.00 in0.0 mm
01:53 AM 40.5°F4.7°C 32.9°F0.5°C 74% 16.0 mph WSW25.7 kmh WSW 28.0 mph45.1 kmh 29.28 in991.5 mb 0.00 in0.0 mm 0.00 in/hr0.0 mm/hr 0.00 in0.0 mm
01:52 AM 40.5°F4.7°C 32.9°F0.5°C 74% 16.0 mph WSW25.7 kmh WSW 27.0 mph43.5 kmh 29.28 in991.5 mb 0.00 in0.0 mm 0.00 in/hr0.0 mm/hr 0.00 in0.0 mm
01:51 AM 40.5°F4.7°C 32.5°F0.3°C 73% 16.0 mph WSW25.7 kmh WSW 27.0 mph43.5 kmh 29.28 in991.5 mb 0.00 in0.0 mm 0.00 in/hr0.0 mm/hr 0.00 in0.0 mm
01:50 AM 40.5°F4.7°C 32.5°F0.3°C 73% 16.0 mph WSW25.7 kmh WSW 27.0 mph43.5 kmh 29.28 in991.5 mb 0.00 in0.0 mm 0.00 in/hr0.0 mm/hr 0.00 in0.0 mm
01:49 AM 40.5°F4.7°C 32.5°F0.3°C 73% 15.0 mph WSW24.1 kmh WSW 27.0 mph43.5 kmh 29.28 in991.5 mb 0.00 in0.0 mm 0.00 in/hr0.0 mm/hr 0.00 in0.0 mm
01:48 AM 40.5°F4.7°C 32.5°F0.3°C 73% 15.0 mph WSW24.1 kmh WSW 27.0 mph43.5 kmh 29.28 in991.5 mb 0.00 in0.0 mm 0.00 in/hr0.0 mm/hr 0.00 in0.0 mm
01:47 AM 40.5°F4.7°C 32.5°F0.3°C 73% 15.0 mph WSW24.1 kmh WSW 27.0 mph43.5 kmh 29.28 in991.5 mb 0.00 in0.0 mm 0.00 in/hr0.0 mm/hr 0.00 in0.0 mm
01:46 AM 40.5°F4.7°C 32.5°F0.3°C 73% 14.0 mph WSW22.5 kmh WSW 27.0 mph43.5 kmh 29.28 in991.5 mb 0.00 in0.0 mm 0.00 in/hr0.0 mm/hr 0.00 in0.0 mm
01:45 AM 40.5°F4.7°C 32.5°F0.3°C 73% 15.0 mph WSW24.1 kmh WSW 27.0 mph43.5 kmh 29.28 in991.5 mb 0.00 in0.0 mm 0.00 in/hr0.0 mm/hr 0.00 in0.0 mm
01:44 AM 40.5°F4.7°C 32.5°F0.3°C 73% 15.0 mph WSW24.1 kmh WSW 31.0 mph49.9 kmh 29.28 in991.5 mb 0.00 in0.0 mm 0.00 in/hr0.0 mm/hr 0.00 in0.0 mm
01:43 AM 40.5°F4.7°C 32.5°F0.3°C 73% 15.0 mph WSW24.1 kmh WSW 31.0 mph49.9 kmh 29.28 in991.5 mb 0.00 in0.0 mm 0.00 in/hr0.0 mm/hr 0.00 in0.0 mm
01:42 AM 40.5°F4.7°C 32.5°F0.3°C 73% 15.0 mph WSW24.1 kmh WSW 31.0 mph49.9 kmh 29.28 in991.5 mb 0.00 in0.0 mm 0.00 in/hr0.0 mm/hr 0.00 in0.0 mm
01:41 AM 40.5°F4.7°C 32.5°F0.3°C 73% 16.0 mph WSW25.7 kmh WSW 31.0 mph49.9 kmh 29.28 in991.5 mb 0.00 in0.0 mm 0.00 in/hr0.0 mm/hr 0.00 in0.0 mm
01:40 AM 40.5°F4.7°C 32.5°F0.3°C 73% 16.0 mph WSW25.7 kmh WSW 31.0 mph49.9 kmh 29.28 in991.5 mb 0.00 in0.0 mm 0.00 in/hr0.0 mm/hr 0.00 in0.0 mm
01:39 AM 40.5°F4.7°C 32.5°F0.3°C 73% 17.0 mph WSW27.4 kmh WSW 31.0 mph49.9 kmh 29.28 in991.5 mb 0.00 in0.0 mm 0.00 in/hr0.0 mm/hr 0.00 in0.0 mm
01:38 AM 40.5°F4.7°C 32.5°F0.3°C 73% 17.0 mph WSW27.4 kmh WSW 31.0 mph49.9 kmh 29.28 in991.5 mb 0.00 in0.0 mm 0.00 in/hr0.0 mm/hr 0.00 in0.0 mm
01:37 AM 40.5°F4.7°C 32.5°F0.3°C 73% 17.0 mph WSW27.4 kmh WSW 31.0 mph49.9 kmh 29.28 in991.5 mb 0.00 in0.0 mm 0.00 in/hr0.0 mm/hr 0.00 in0.0 mm
01:36 AM 40.5°F4.7°C 32.5°F0.3°C 73% 17.0 mph WSW27.4 kmh WSW 31.0 mph49.9 kmh 29.28 in991.5 mb 0.00 in0.0 mm 0.00 in/hr0.0 mm/hr 0.00 in0.0 mm
01:35 AM 40.5°F4.7°C 32.5°F0.3°C 73% 17.0 mph WSW27.4 kmh WSW 31.0 mph49.9 kmh 29.29 in991.9 mb 0.00 in0.0 mm 0.00 in/hr0.0 mm/hr 0.00 in0.0 mm
01:34 AM 40.5°F4.7°C 32.5°F0.3°C 73% 16.0 mph WSW25.7 kmh WSW 28.0 mph45.1 kmh 29.29 in991.9 mb 0.00 in0.0 mm 0.00 in/hr0.0 mm/hr 0.00 in0.0 mm
01:33 AM 40.5°F4.7°C 32.5°F0.3°C 73% 16.0 mph WSW25.7 kmh WSW 28.0 mph45.1 kmh 29.29 in991.9 mb 0.00 in0.0 mm 0.00 in/hr0.0 mm/hr 0.00 in0.0 mm
01:32 AM 40.5°F4.7°C 32.5°F0.3°C 73% 16.0 mph WSW25.7 kmh WSW 28.0 mph45.1 kmh 29.29 in991.9 mb 0.00 in0.0 mm 0.00 in/hr0.0 mm/hr 0.00 in0.0 mm
01:31 AM 40.5°F4.7°C 32.5°F0.3°C 73% 15.0 mph WSW24.1 kmh WSW 28.0 mph45.1 kmh 29.29 in991.9 mb 0.00 in0.0 mm 0.00 in/hr0.0 mm/hr 0.00 in0.0 mm
01:30 AM 40.5°F4.7°C 32.5°F0.3°C 73% 16.0 mph WSW25.7 kmh WSW 27.0 mph43.5 kmh 29.29 in991.9 mb 0.00 in0.0 mm 0.00 in/hr0.0 mm/hr 0.00 in0.0 mm
01:29 AM 40.5°F4.7°C 32.5°F0.3°C 73% 16.0 mph WSW25.7 kmh WSW 27.0 mph43.5 kmh 29.29 in991.9 mb 0.00 in0.0 mm 0.00 in/hr0.0 mm/hr 0.00 in0.0 mm
01:28 AM 40.5°F4.7°C 32.5°F0.3°C 73% 16.0 mph WSW25.7 kmh WSW 27.0 mph43.5 kmh 29.29 in991.9 mb 0.00 in0.0 mm 0.00 in/hr0.0 mm/hr 0.00 in0.0 mm
01:27 AM 40.5°F4.7°C 32.5°F0.3°C 73% 16.0 mph WSW25.7 kmh WSW 27.0 mph43.5 kmh 29.29 in991.9 mb 0.00 in0.0 mm 0.00 in/hr0.0 mm/hr 0.00 in0.0 mm
01:26 AM 40.5°F4.7°C 32.5°F0.3°C 73% 17.0 mph WSW27.4 kmh WSW 27.0 mph43.5 kmh 29.29 in991.9 mb 0.00 in0.0 mm 0.00 in/hr0.0 mm/hr 0.00 in0.0 mm
01:25 AM 40.5°F4.7°C 32.4°F0.2°C 73% 17.0 mph WSW27.4 kmh WSW 29.0 mph46.7 kmh 29.29 in991.9 mb 0.00 in0.0 mm 0.00 in/hr0.0 mm/hr 0.00 in0.0 mm
01:24 AM 40.5°F4.7°C 32.5°F0.3°C 73% 17.0 mph WSW27.4 kmh WSW 29.0 mph46.7 kmh 29.29 in991.9 mb 0.00 in0.0 mm 0.00 in/hr0.0 mm/hr 0.00 in0.0 mm
01:23 AM 40.5°F4.7°C 32.5°F0.3°C 73% 16.0 mph WSW25.7 kmh WSW 29.0 mph46.7 kmh 29.29 in991.9 mb 0.00 in0.0 mm 0.00 in/hr0.0 mm/hr 0.00 in0.0 mm
01:22 AM 40.5°F4.7°C 32.5°F0.3°C 73% 17.0 mph WSW27.4 kmh WSW 29.0 mph46.7 kmh 29.29 in991.9 mb 0.00 in0.0 mm 0.00 in/hr0.0 mm/hr 0.00 in0.0 mm
01:21 AM 40.5°F4.7°C 32.5°F0.3°C 73% 17.0 mph WSW27.4 kmh WSW 29.0 mph46.7 kmh 29.29 in991.9 mb 0.00 in0.0 mm 0.00 in/hr0.0 mm/hr 0.00 in0.0 mm
01:20 AM 40.5°F4.7°C 32.5°F0.3°C 73% 16.0 mph WSW25.7 kmh WSW 29.0 mph46.7 kmh 29.29 in991.9 mb 0.00 in0.0 mm 0.00 in/hr0.0 mm/hr 0.00 in0.0 mm
01:19 AM 40.5°F4.7°C 32.2°F0.1°C 72% 16.0 mph WSW25.7 kmh WSW 29.0 mph46.7 kmh 29.29 in991.9 mb 0.00 in0.0 mm 0.00 in/hr0.0 mm/hr 0.00 in0.0 mm
01:18 AM 40.5°F4.7°C 32.0°F0.0°C 72% 16.0 mph WSW25.7 kmh WSW 29.0 mph46.7 kmh 29.29 in991.9 mb 0.00 in0.0 mm 0.00 in/hr0.0 mm/hr 0.00 in0.0 mm
01:17 AM 40.5°F4.7°C 32.5°F0.3°C 73% 16.0 mph WSW25.7 kmh WSW 34.0 mph54.7 kmh 29.29 in991.9 mb 0.00 in0.0 mm 0.00 in/hr0.0 mm/hr 0.00 in0.0 mm
01:16 AM 40.5°F4.7°C 32.5°F0.3°C 73% 16.0 mph WSW25.7 kmh WSW 34.0 mph54.7 kmh 29.29 in991.9 mb 0.00 in0.0 mm 0.00 in/hr0.0 mm/hr 0.00 in0.0 mm
01:15 AM 40.5°F4.7°C 32.5°F0.3°C 73% 16.0 mph WSW25.7 kmh WSW 34.0 mph54.7 kmh 29.30 in992.2 mb 0.00 in0.0 mm 0.00 in/hr0.0 mm/hr 0.00 in0.0 mm
01:14 AM 40.5°F4.7°C 32.5°F0.3°C 73% 16.0 mph WSW25.7 kmh WSW 34.0 mph54.7 kmh 29.30 in992.2 mb 0.00 in0.0 mm 0.00 in/hr0.0 mm/hr 0.00 in0.0 mm
01:13 AM 40.5°F4.7°C 32.2°F0.1°C 72% 17.0 mph WSW27.4 kmh WSW 34.0 mph54.7 kmh 29.29 in991.9 mb 0.00 in0.0 mm 0.00 in/hr0.0 mm/hr 0.00 in0.0 mm
01:12 AM 40.5°F4.7°C 32.2°F0.1°C 72% 17.0 mph WSW27.4 kmh WSW 34.0 mph54.7 kmh 29.30 in992.2 mb 0.00 in0.0 mm 0.00 in/hr0.0 mm/hr 0.00 in0.0 mm
01:11 AM 40.5°F4.7°C 32.2°F0.1°C 72% 17.0 mph WSW27.4 kmh WSW 34.0 mph54.7 kmh 29.30 in992.2 mb 0.00 in0.0 mm 0.00 in/hr0.0 mm/hr 0.00 in0.0 mm
01:10 AM 40.5°F4.7°C 32.0°F0.0°C 72% 18.0 mph WSW29.0 kmh WSW 34.0 mph54.7 kmh 29.30 in992.2 mb 0.00 in0.0 mm 0.00 in/hr0.0 mm/hr 0.00 in0.0 mm
01:09 AM 40.5°F4.7°C 32.2°F0.1°C 72% 17.0 mph WSW27.4 kmh WSW 34.0 mph54.7 kmh 29.30 in992.2 mb 0.00 in0.0 mm 0.00 in/hr0.0 mm/hr 0.00 in0.0 mm
01:08 AM 40.5°F4.7°C 32.0°F0.0°C 72% 17.0 mph WSW27.4 kmh WSW 34.0 mph54.7 kmh 29.30 in992.2 mb 0.00 in0.0 mm 0.00 in/hr0.0 mm/hr 0.00 in0.0 mm
01:07 AM 40.5°F4.7°C 32.4°F0.2°C 73% 17.0 mph WSW27.4 kmh WSW 31.0 mph49.9 kmh 29.30 in992.2 mb 0.00 in0.0 mm 0.00 in/hr0.0 mm/hr 0.00 in0.0 mm
01:06 AM 40.5°F4.7°C 32.4°F0.2°C 73% 17.0 mph WSW27.4 kmh WSW 31.0 mph49.9 kmh 29.30 in992.2 mb 0.00 in0.0 mm 0.00 in/hr0.0 mm/hr 0.00 in0.0 mm
01:05 AM 40.5°F4.7°C 32.4°F0.2°C 73% 16.0 mph WSW25.7 kmh WSW 29.0 mph46.7 kmh 29.30 in992.2 mb 0.00 in0.0 mm 0.00 in/hr0.0 mm/hr 0.00 in0.0 mm
01:04 AM 40.5°F4.7°C 32.4°F0.2°C 73% 15.0 mph WSW24.1 kmh WSW 29.0 mph46.7 kmh 29.30 in992.2 mb 0.00 in0.0 mm 0.00 in/hr0.0 mm/hr 0.00 in0.0 mm
01:03 AM 40.3°F4.6°C 32.7°F0.4°C 74% 15.0 mph WSW24.1 kmh WSW 29.0 mph46.7 kmh 29.30 in992.2 mb 0.00 in0.0 mm 0.00 in/hr0.0 mm/hr 0.00 in0.0 mm
01:02 AM 40.3°F4.6°C 32.7°F0.4°C 74% 14.0 mph WSW22.5 kmh WSW 27.0 mph43.5 kmh 29.30 in992.2 mb 0.00 in0.0 mm 0.00 in/hr0.0 mm/hr 0.00 in0.0 mm
01:01 AM 40.3°F4.6°C 32.7°F0.4°C 74% 15.0 mph WSW24.1 kmh WSW 27.0 mph43.5 kmh 29.30 in992.2 mb 0.00 in0.0 mm 0.00 in/hr0.0 mm/hr 0.00 in0.0 mm
01:00 AM 40.3°F4.6°C 32.7°F0.4°C 74% 14.0 mph WSW22.5 kmh WSW 27.0 mph43.5 kmh 29.30 in992.2 mb 0.00 in0.0 mm 0.00 in/hr0.0 mm/hr 0.00 in0.0 mm
12:59 AM 40.3°F4.6°C 32.7°F0.4°C 74% 14.0 mph WSW22.5 kmh WSW 27.0 mph43.5 kmh 29.30 in992.2 mb 0.00 in0.0 mm 0.00 in/hr0.0 mm/hr 0.00 in0.0 mm
12:58 AM 40.3°F4.6°C 32.7°F0.4°C 74% 14.0 mph WSW22.5 kmh WSW 25.0 mph40.2 kmh 29.30 in992.2 mb 0.00 in0.0 mm 0.00 in/hr0.0 mm/hr 0.00 in0.0 mm
12:57 AM 40.3°F4.6°C 32.7°F0.4°C 74% 15.0 mph WSW24.1 kmh WSW 25.0 mph40.2 kmh 29.30 in992.2 mb 0.00 in0.0 mm 0.00 in/hr0.0 mm/hr 0.00 in0.0 mm
12:56 AM 40.3°F4.6°C 32.7°F0.4°C 74% 14.0 mph WSW22.5 kmh WSW 28.0 mph45.1 kmh 29.30 in992.2 mb 0.00 in0.0 mm 0.00 in/hr0.0 mm/hr 0.00 in0.0 mm
12:55 AM 40.3°F4.6°C 32.7°F0.4°C 74% 15.0 mph WSW24.1 kmh WSW 28.0 mph45.1 kmh 29.30 in992.2 mb 0.00 in0.0 mm 0.00 in/hr0.0 mm/hr 0.00 in0.0 mm
12:54 AM 40.3°F4.6°C 32.5°F0.3°C 74% 15.0 mph WSW24.1 kmh WSW 28.0 mph45.1 kmh 29.30 in992.2 mb 0.00 in0.0 mm 0.00 in/hr0.0 mm/hr 0.00 in0.0 mm
12:53 AM 40.3°F4.6°C 32.5°F0.3°C 74% 16.0 mph WSW25.7 kmh WSW 28.0 mph45.1 kmh 29.31 in992.6 mb 0.00 in0.0 mm 0.00 in/hr0.0 mm/hr 0.00 in0.0 mm
12:52 AM 40.3°F4.6°C 32.5°F0.3°C 74% 16.0 mph WSW25.7 kmh WSW 28.0 mph45.1 kmh 29.31 in992.6 mb 0.00 in0.0 mm 0.00 in/hr0.0 mm/hr 0.00 in0.0 mm
12:51 AM 40.3°F4.6°C 32.2°F0.1°C 73% 16.0 mph WSW25.7 kmh WSW 28.0 mph45.1 kmh 29.30 in992.2 mb 0.00 in0.0 mm 0.00 in/hr0.0 mm/hr 0.00 in0.0 mm
12:50 AM 40.3°F4.6°C 32.2°F0.1°C 73% 16.0 mph WSW25.7 kmh WSW 28.0 mph45.1 kmh 29.31 in992.6 mb 0.00 in0.0 mm 0.00 in/hr0.0 mm/hr 0.00 in0.0 mm
12:49 AM 40.1°F4.5°C 32.2°F0.1°C 73% 16.0 mph WSW25.7 kmh WSW 28.0 mph45.1 kmh 29.31 in992.6 mb 0.00 in0.0 mm 0.00 in/hr0.0 mm/hr 0.00 in0.0 mm
12:48 AM 40.1°F4.5°C 32.2°F0.1°C 73% 16.0 mph WSW25.7 kmh WSW 28.0 mph45.1 kmh 29.31 in992.6 mb 0.00 in0.0 mm 0.00 in/hr0.0 mm/hr 0.00 in0.0 mm
12:47 AM 40.1°F4.5°C 32.2°F0.1°C 73% 16.0 mph WSW25.7 kmh WSW 28.0 mph45.1 kmh 29.31 in992.6 mb 0.00 in0.0 mm 0.00 in/hr0.0 mm/hr 0.00 in0.0 mm
12:46 AM 40.1°F4.5°C 32.2°F0.1°C 73% 15.0 mph WSW24.1 kmh WSW 28.0 mph45.1 kmh 29.31 in992.6 mb 0.00 in0.0 mm 0.00 in/hr0.0 mm/hr 0.00 in0.0 mm
12:45 AM 40.1°F4.5°C 32.2°F0.1°C 73% 15.0 mph WSW24.1 kmh WSW 28.0 mph45.1 kmh 29.31 in992.6 mb 0.00 in0.0 mm 0.00 in/hr0.0 mm/hr 0.00 in0.0 mm
12:44 AM 40.1°F4.5°C 32.5°F0.3°C 74% 15.0 mph WSW24.1 kmh WSW 28.0 mph45.1 kmh 29.31 in992.6 mb 0.00 in0.0 mm 0.00 in/hr0.0 mm/hr 0.00 in0.0 mm
12:43 AM 39.9°F4.4°C 32.4°F0.2°C 74% 14.0 mph WSW22.5 kmh WSW 28.0 mph45.1 kmh 29.31 in992.6 mb 0.00 in0.0 mm 0.00 in/hr0.0 mm/hr 0.00 in0.0 mm
12:42 AM 39.9°F4.4°C 32.4°F0.2°C 74% 14.0 mph WSW22.5 kmh WSW 28.0 mph45.1 kmh 29.31 in992.6 mb 0.00 in0.0 mm 0.00 in/hr0.0 mm/hr 0.00 in0.0 mm
12:41 AM 39.9°F4.4°C 32.4°F0.2°C 74% 13.0 mph WSW20.9 kmh WSW 27.0 mph43.5 kmh 29.31 in992.6 mb 0.00 in0.0 mm 0.00 in/hr0.0 mm/hr 0.00 in0.0 mm
12:40 AM 39.9°F4.4°C 32.4°F0.2°C 74% 13.0 mph WSW20.9 kmh WSW 27.0 mph43.5 kmh 29.31 in992.6 mb 0.00 in0.0 mm 0.00 in/hr0.0 mm/hr 0.00 in0.0 mm
12:39 AM 39.9°F4.4°C 32.4°F0.2°C 74% 14.0 mph WSW22.5 kmh WSW 27.0 mph43.5 kmh 29.31 in992.6 mb 0.00 in0.0 mm 0.00 in/hr0.0 mm/hr 0.00 in0.0 mm
12:38 AM 39.9°F4.4°C 32.4°F0.2°C 74% 14.0 mph WSW22.5 kmh WSW 27.0 mph43.5 kmh 29.31 in992.6 mb 0.00 in0.0 mm 0.00 in/hr0.0 mm/hr 0.00 in0.0 mm
12:37 AM 39.9°F4.4°C 32.4°F0.2°C 74% 13.0 mph WSW20.9 kmh WSW 25.0 mph40.2 kmh 29.31 in992.6 mb 0.00 in0.0 mm 0.00 in/hr0.0 mm/hr 0.00 in0.0 mm
12:36 AM 39.9°F4.4°C 32.4°F0.2°C 74% 13.0 mph WSW20.9 kmh WSW 25.0 mph40.2 kmh 29.31 in992.6 mb 0.00 in0.0 mm 0.00 in/hr0.0 mm/hr 0.00 in0.0 mm
12:35 AM 39.9°F4.4°C 32.4°F0.2°C 74% 14.0 mph WSW22.5 kmh WSW 25.0 mph40.2 kmh 29.31 in992.6 mb 0.00 in0.0 mm 0.00 in/hr0.0 mm/hr 0.00 in0.0 mm
12:34 AM 39.9°F4.4°C 32.4°F0.2°C 74% 14.0 mph WSW22.5 kmh WSW 25.0 mph40.2 kmh 29.31 in992.6 mb 0.00 in0.0 mm 0.00 in/hr0.0 mm/hr 0.00 in0.0 mm
12:33 AM 39.9°F4.4°C 32.4°F0.2°C 74% 14.0 mph WSW22.5 kmh WSW 24.0 mph38.6 kmh 29.31 in992.6 mb 0.00 in0.0 mm 0.00 in/hr0.0 mm/hr 0.00 in0.0 mm
12:32 AM 39.9°F4.4°C 32.4°F0.2°C 74% 15.0 mph WSW24.1 kmh WSW 24.0 mph38.6 kmh 29.31 in992.6 mb 0.00 in0.0 mm 0.00 in/hr0.0 mm/hr 0.00 in0.0 mm
12:31 AM 39.9°F4.4°C 32.4°F0.2°C 74% 15.0 mph WSW24.1 kmh WSW 28.0 mph45.1 kmh 29.31 in992.6 mb 0.00 in0.0 mm 0.00 in/hr0.0 mm/hr 0.00 in0.0 mm
12:30 AM 39.9°F4.4°C 32.4°F0.2°C 74% 15.0 mph WSW24.1 kmh WSW 28.0 mph45.1 kmh 29.31 in992.6 mb 0.00 in0.0 mm 0.00 in/hr0.0 mm/hr 0.00 in0.0 mm
12:29 AM 39.9°F4.4°C 32.4°F0.2°C 74% 15.0 mph WSW24.1 kmh WSW 28.0 mph45.1 kmh 29.31 in992.6 mb 0.00 in0.0 mm 0.00 in/hr0.0 mm/hr 0.00 in0.0 mm
12:28 AM 40.1°F4.5°C 32.5°F0.3°C 74% 16.0 mph WSW25.7 kmh WSW 28.0 mph45.1 kmh 29.31 in992.6 mb 0.00 in0.0 mm 0.00 in/hr0.0 mm/hr 0.00 in0.0 mm
12:27 AM 40.1°F4.5°C 32.5°F0.3°C 74% 17.0 mph WSW27.4 kmh WSW 28.0 mph45.1 kmh 29.31 in992.6 mb 0.00 in0.0 mm 0.00 in/hr0.0 mm/hr 0.00 in0.0 mm
12:26 AM 40.1°F4.5°C 32.5°F0.3°C 74% 17.0 mph WSW27.4 kmh WSW 30.0 mph48.3 kmh 29.31 in992.6 mb 0.00 in0.0 mm 0.00 in/hr0.0 mm/hr 0.00 in0.0 mm
12:25 AM 40.1°F4.5°C 32.5°F0.3°C 74% 17.0 mph WSW27.4 kmh WSW 30.0 mph48.3 kmh 29.31 in992.6 mb 0.00 in0.0 mm 0.00 in/hr0.0 mm/hr 0.00 in0.0 mm
12:24 AM 40.1°F4.5°C 32.5°F0.3°C 74% 17.0 mph WSW27.4 kmh WSW 30.0 mph48.3 kmh 29.32 in992.9 mb 0.00 in0.0 mm 0.00 in/hr0.0 mm/hr 0.00 in0.0 mm
12:23 AM 39.9°F4.4°C 32.4°F0.2°C 74% 16.0 mph WSW25.7 kmh WSW 30.0 mph48.3 kmh 29.31 in992.6 mb 0.00 in0.0 mm 0.00 in/hr0.0 mm/hr 0.00 in0.0 mm
12:22 AM 39.9°F4.4°C 32.4°F0.2°C 74% 16.0 mph WSW25.7 kmh WSW 30.0 mph48.3 kmh 29.31 in992.6 mb 0.00 in0.0 mm 0.00 in/hr0.0 mm/hr 0.00 in0.0 mm
12:21 AM 39.9°F4.4°C 32.4°F0.2°C 74% 15.0 mph WSW24.1 kmh WSW 30.0 mph48.3 kmh 29.31 in992.6 mb 0.00 in0.0 mm 0.00 in/hr0.0 mm/hr 0.00 in0.0 mm
12:20 AM 39.9°F4.4°C 32.4°F0.2°C 74% 15.0 mph WSW24.1 kmh WSW 30.0 mph48.3 kmh 29.31 in992.6 mb 0.00 in0.0 mm 0.00 in/hr0.0 mm/hr 0.00 in0.0 mm
12:19 AM 39.9°F4.4°C 32.4°F0.2°C 74% 15.0 mph WSW24.1 kmh WSW 30.0 mph48.3 kmh 29.31 in992.6 mb 0.00 in0.0 mm 0.00 in/hr0.0 mm/hr 0.00 in0.0 mm
12:18 AM 39.9°F4.4°C 32.4°F0.2°C 74% 15.0 mph WSW24.1 kmh WSW 30.0 mph48.3 kmh 29.32 in992.9 mb 0.00 in0.0 mm 0.00 in/hr0.0 mm/hr 0.00 in0.0 mm
12:17 AM 39.9°F4.4°C 32.4°F0.2°C 74% 14.0 mph WSW22.5 kmh WSW 30.0 mph48.3 kmh 29.32 in992.9 mb 0.00 in0.0 mm 0.00 in/hr0.0 mm/hr 0.00 in0.0 mm
12:16 AM 39.9°F4.4°C 32.4°F0.2°C 74% 14.0 mph WSW22.5 kmh WSW 25.0 mph40.2 kmh 29.32 in992.9 mb 0.00 in0.0 mm 0.00 in/hr0.0 mm/hr 0.00 in0.0 mm
12:15 AM 40.1°F4.5°C 32.5°F0.3°C 74% 13.0 mph WSW20.9 kmh WSW 25.0 mph40.2 kmh 29.32 in992.9 mb 0.00 in0.0 mm 0.00 in/hr0.0 mm/hr 0.00 in0.0 mm
12:14 AM 40.1°F4.5°C 32.5°F0.3°C 74% 14.0 mph WSW22.5 kmh WSW 25.0 mph40.2 kmh 29.32 in992.9 mb 0.00 in0.0 mm 0.00 in/hr0.0 mm/hr 0.00 in0.0 mm
12:13 AM 40.1°F4.5°C 32.5°F0.3°C 74% 14.0 mph WSW22.5 kmh WSW 25.0 mph40.2 kmh 29.32 in992.9 mb 0.00 in0.0 mm 0.00 in/hr0.0 mm/hr 0.00 in0.0 mm
12:12 AM 40.1°F4.5°C 32.5°F0.3°C 74% 14.0 mph WSW22.5 kmh WSW 25.0 mph40.2 kmh 29.32 in992.9 mb 0.00 in0.0 mm 0.00 in/hr0.0 mm/hr 0.00 in0.0 mm
12:11 AM 40.3°F4.6°C 32.5°F0.3°C 74% 14.0 mph WSW22.5 kmh WSW 25.0 mph40.2 kmh 29.32 in992.9 mb 0.00 in0.0 mm 0.00 in/hr0.0 mm/hr 0.00 in0.0 mm
12:10 AM 40.3°F4.6°C 32.5°F0.3°C 74% 15.0 mph WSW24.1 kmh WSW 25.0 mph40.2 kmh 29.32 in992.9 mb 0.00 in0.0 mm 0.00 in/hr0.0 mm/hr 0.00 in0.0 mm
12:09 AM 40.3°F4.6°C 32.5°F0.3°C 74% 16.0 mph WSW25.7 kmh WSW 29.0 mph46.7 kmh 29.32 in992.9 mb 0.00 in0.0 mm 0.00 in/hr0.0 mm/hr 0.00 in0.0 mm
12:08 AM 40.3°F4.6°C 32.5°F0.3°C 74% 16.0 mph WSW25.7 kmh WSW 29.0 mph46.7 kmh 29.32 in992.9 mb 0.00 in0.0 mm 0.00 in/hr0.0 mm/hr 0.00 in0.0 mm
12:07 AM 40.3°F4.6°C 32.5°F0.3°C 74% 16.0 mph WSW25.7 kmh WSW 29.0 mph46.7 kmh 29.32 in992.9 mb 0.00 in0.0 mm 0.00 in/hr0.0 mm/hr 0.00 in0.0 mm
12:06 AM 40.3°F4.6°C 32.5°F0.3°C 74% 15.0 mph WSW24.1 kmh WSW 29.0 mph46.7 kmh 29.32 in992.9 mb 0.00 in0.0 mm 0.00 in/hr0.0 mm/hr 0.00 in0.0 mm
12:05 AM 40.3°F4.6°C 32.2°F0.1°C 73% 15.0 mph WSW24.1 kmh WSW 29.0 mph46.7 kmh 29.32 in992.9 mb 0.00 in0.0 mm 0.00 in/hr0.0 mm/hr 0.00 in0.0 mm
12:04 AM 40.3°F4.6°C 32.2°F0.1°C 73% 15.0 mph WSW24.1 kmh WSW 29.0 mph46.7 kmh 29.32 in992.9 mb 0.00 in0.0 mm 0.00 in/hr0.0 mm/hr 0.00 in0.0 mm
12:03 AM 40.3°F4.6°C 32.2°F0.1°C 73% 16.0 mph WSW25.7 kmh WSW 29.0 mph46.7 kmh 29.32 in992.9 mb 0.00 in0.0 mm 0.00 in/hr0.0 mm/hr 0.00 in0.0 mm
12:02 AM 40.3°F4.6°C 32.2°F0.1°C 73% 15.0 mph WSW24.1 kmh WSW 29.0 mph46.7 kmh 29.32 in992.9 mb 0.00 in0.0 mm 0.00 in/hr0.0 mm/hr 0.00 in0.0 mm
12:01 AM 40.3°F4.6°C 32.2°F0.1°C 73% 15.0 mph WSW24.1 kmh WSW 29.0 mph46.7 kmh 29.32 in992.9 mb 0.00 in0.0 mm 0.00 in/hr0.0 mm/hr 0.00 in0.0 mm
12:00 AM 40.3°F4.6°C 32.2°F0.1°C 73% 15.0 mph WSW24.1 kmh WSW 29.0 mph46.7 kmh 29.33 in993.2 mb 0.00 in0.0 mm 0.00 in/hr0.0 mm/hr 0.00 in0.0 mm